AAL2128 MROC-NZAA
Flight info
| Callsign | AAL2128 |
|---|---|
| Flight time | N/A |
| Altitude | 34000 |
| Route | ATENA4 PARRI ERABA UKABO 02S100W 09S110W 16S120W 22S130W 27S140W 31S150W 33S160W 35S170W OLBEX EXOP8D |
| Aircraft | B78X/H-V/N |
Departure
| Time | 2026-05-05 02:28 |
|---|---|
| Airport | Juan Santamaría International Airport (MROC) |
Arrival
| Time | N/A |
|---|---|
| Airport | Auckland International Airport (NZAA) |
| Time | Latitude | Longitude | Altitude | Speed | Heading |
|---|---|---|---|---|---|
| 2026-05-05 01:45 | 9.99825 | -84.20146 | 3039 ft | 0 kts | 339° |
| 2026-05-05 02:10 | 9.99821 | -84.20144 | 3039 ft | 2 kts | 339° |
| 2026-05-05 02:10 | 9.99805 | -84.20138 | 3039 ft | 3 kts | 333° |
| 2026-05-05 02:11 | 9.99789 | -84.20127 | 3039 ft | 3 kts | 314° |
| 2026-05-05 02:11 | 9.99778 | -84.20110 | 3039 ft | 3 kts | 295° |
| 2026-05-05 02:11 | 9.99772 | -84.20090 | 3039 ft | 3 kts | 276° |
| 2026-05-05 02:11 | 9.99772 | -84.20073 | 3039 ft | 0 kts | 263° |
| 2026-05-05 02:15 | 9.99771 | -84.20076 | 3039 ft | 2 kts | 263° |
| 2026-05-05 02:15 | 9.99765 | -84.20108 | 3039 ft | 4 kts | 255° |
| 2026-05-05 02:15 | 9.99763 | -84.20116 | 3039 ft | 0 kts | 253° |
| 2026-05-05 02:16 | 9.99759 | -84.20128 | 3039 ft | 3 kts | 254° |
| 2026-05-05 02:16 | 9.99749 | -84.20162 | 3039 ft | 7 kts | 252° |
| 2026-05-05 02:16 | 9.99734 | -84.20208 | 3039 ft | 6 kts | 251° |
| 2026-05-05 02:17 | 9.99721 | -84.20244 | 3039 ft | 4 kts | 249° |
| 2026-05-05 02:17 | 9.99720 | -84.20246 | 3039 ft | 0 kts | 249° |
| 2026-05-05 02:19 | 9.99711 | -84.20272 | 3039 ft | 9 kts | 249° |
| 2026-05-05 02:19 | 9.99678 | -84.20361 | 3039 ft | 16 kts | 249° |
| 2026-05-05 02:19 | 9.99646 | -84.20449 | 3039 ft | 11 kts | 250° |
| 2026-05-05 02:19 | 9.99620 | -84.20521 | 3039 ft | 11 kts | 250° |
| 2026-05-05 02:20 | 9.99591 | -84.20600 | 3039 ft | 13 kts | 250° |
| 2026-05-05 02:20 | 9.99554 | -84.20699 | 3039 ft | 17 kts | 250° |
| 2026-05-05 02:20 | 9.99508 | -84.20827 | 3039 ft | 21 kts | 249° |
| 2026-05-05 02:20 | 9.99454 | -84.20971 | 3039 ft | 20 kts | 249° |
| 2026-05-05 02:21 | 9.99413 | -84.21079 | 3039 ft | 13 kts | 249° |
| 2026-05-05 02:21 | 9.99390 | -84.21141 | 3039 ft | 6 kts | 249° |
| 2026-05-05 02:21 | 9.99372 | -84.21187 | 3039 ft | 10 kts | 244° |
| 2026-05-05 02:21 | 9.99336 | -84.21278 | 3039 ft | 18 kts | 252° |
| 2026-05-05 02:22 | 9.99285 | -84.21422 | 3039 ft | 25 kts | 249° |
| 2026-05-05 02:22 | 9.99219 | -84.21598 | 3039 ft | 28 kts | 249° |
| 2026-05-05 02:22 | 9.99154 | -84.21769 | 3039 ft | 23 kts | 249° |
| 2026-05-05 02:22 | 9.99103 | -84.21905 | 3039 ft | 18 kts | 249° |
| 2026-05-05 02:23 | 9.99066 | -84.22007 | 3039 ft | 13 kts | 242° |
| 2026-05-05 02:23 | 9.99036 | -84.22071 | 3039 ft | 7 kts | 249° |
| 2026-05-05 02:23 | 9.99028 | -84.22090 | 3039 ft | 0 kts | 249° |
| 2026-05-05 02:26 | 9.99019 | -84.22115 | 3039 ft | 10 kts | 249° |
| 2026-05-05 02:26 | 9.98982 | -84.22175 | 3039 ft | 7 kts | 200° |
| 2026-05-05 02:26 | 9.98946 | -84.22165 | 3039 ft | 5 kts | 149° |
| 2026-05-05 02:26 | 9.98930 | -84.22141 | 3039 ft | 3 kts | 106° |
| 2026-05-05 02:27 | 9.98933 | -84.22115 | 3039 ft | 4 kts | 73° |
| 2026-05-05 02:27 | 9.98938 | -84.22098 | 3039 ft | 0 kts | 71° |
| 2026-05-05 02:27 | 9.98970 | -84.22011 | 3039 ft | 37 kts | 70° |
| 2026-05-05 02:27 | 9.99127 | -84.21587 | 3039 ft | 93 kts | 69° |
| 2026-05-05 02:28 | 9.99433 | -84.20769 | 3039 ft | 153 kts | 69° |
| 2026-05-05 02:28 | 9.99882 | -84.19571 | 3052 ft | 211 kts | 69° |
| 2026-05-05 02:28 | 10.00449 | -84.18056 | 3546 ft | 249 kts | 69° |
| 2026-05-05 02:28 | 10.01108 | -84.16295 | 4392 ft | 284 kts | 69° |
| 2026-05-05 02:29 | 10.01855 | -84.14297 | 5183 ft | 321 kts | 69° |
| 2026-05-05 02:29 | 10.02615 | -84.12085 | 5929 ft | 334 kts | 73° |
| 2026-05-05 02:29 | 10.02743 | -84.09845 | 6632 ft | 308 kts | 94° |
| 2026-05-05 02:29 | 10.02078 | -84.07772 | 7380 ft | 319 kts | 116° |
| 2026-05-05 02:30 | 10.00665 | -84.05934 | 8177 ft | 342 kts | 137° |
| 2026-05-05 02:30 | 9.98648 | -84.04577 | 8908 ft | 359 kts | 156° |
| 2026-05-05 02:30 | 9.96212 | -84.03862 | 9702 ft | 355 kts | 172° |
| 2026-05-05 02:30 | 9.93833 | -84.03769 | 10420 ft | 339 kts | 188° |
| 2026-05-05 02:31 | 9.91588 | -84.04460 | 11177 ft | 343 kts | 207° |
| 2026-05-05 02:31 | 9.89647 | -84.05886 | 11939 ft | 346 kts | 225° |
| 2026-05-05 02:31 | 9.88207 | -84.07833 | 12722 ft | 343 kts | 239° |
| 2026-05-05 02:31 | 9.87099 | -84.09968 | 13484 ft | 343 kts | 245° |
| 2026-05-05 02:32 | 9.86145 | -84.12176 | 14236 ft | 343 kts | 249° |
| 2026-05-05 02:32 | 9.85262 | -84.14415 | 14984 ft | 345 kts | 250° |
| 2026-05-05 02:32 | 9.84400 | -84.16699 | 15724 ft | 349 kts | 250° |
| 2026-05-05 02:32 | 9.83538 | -84.19025 | 16479 ft | 351 kts | 251° |
| 2026-05-05 02:33 | 9.82682 | -84.21351 | 17017 ft | 361 kts | 251° |
| 2026-05-05 02:33 | 9.81789 | -84.23787 | 16994 ft | 368 kts | 251° |
| 2026-05-05 02:33 | 9.80895 | -84.26218 | 16996 ft | 362 kts | 251° |
| 2026-05-05 02:33 | 9.80017 | -84.28601 | 16999 ft | 362 kts | 251° |
| 2026-05-05 02:34 | 9.79136 | -84.30984 | 17007 ft | 363 kts | 251° |
| 2026-05-05 02:34 | 9.78270 | -84.33317 | 17714 ft | 348 kts | 251° |
| 2026-05-05 02:34 | 9.77403 | -84.35647 | 18493 ft | 355 kts | 250° |
| 2026-05-05 02:34 | 9.76526 | -84.38003 | 19247 ft | 364 kts | 250° |
| 2026-05-05 02:35 | 9.75612 | -84.40437 | 19994 ft | 375 kts | 250° |
| 2026-05-05 02:35 | 9.74630 | -84.42877 | 20742 ft | 375 kts | 248° |
| 2026-05-05 02:35 | 9.73535 | -84.45315 | 21505 ft | 375 kts | 246° |
| 2026-05-05 02:35 | 9.72353 | -84.47674 | 22255 ft | 381 kts | 244° |
| 2026-05-05 02:36 | 9.71026 | -84.50068 | 22955 ft | 389 kts | 242° |
| 2026-05-05 02:36 | 9.69601 | -84.52418 | 23497 ft | 396 kts | 239° |
| 2026-05-05 02:36 | 9.68080 | -84.54744 | 24007 ft | 399 kts | 238° |
| 2026-05-05 02:36 | 9.66467 | -84.57068 | 24516 ft | 401 kts | 236° |
| 2026-05-05 02:37 | 9.64803 | -84.59353 | 25019 ft | 405 kts | 235° |
| 2026-05-05 02:37 | 9.63086 | -84.61628 | 25521 ft | 409 kts | 234° |
| 2026-05-05 02:37 | 9.61316 | -84.63905 | 26024 ft | 412 kts | 233° |
| 2026-05-05 02:37 | 9.59524 | -84.66158 | 26522 ft | 415 kts | 233° |
| 2026-05-05 02:38 | 9.57665 | -84.68453 | 27029 ft | 419 kts | 232° |
| 2026-05-05 02:38 | 9.55805 | -84.70718 | 27528 ft | 422 kts | 232° |
| 2026-05-05 02:38 | 9.53916 | -84.72993 | 28027 ft | 425 kts | 232° |
| 2026-05-05 02:38 | 9.51986 | -84.75298 | 28531 ft | 429 kts | 232° |
| 2026-05-05 02:39 | 9.50035 | -84.77610 | 29034 ft | 432 kts | 231° |
| 2026-05-05 02:39 | 9.48059 | -84.79941 | 29538 ft | 436 kts | 231° |
| 2026-05-05 02:39 | 9.46089 | -84.82253 | 30035 ft | 439 kts | 231° |
| 2026-05-05 02:39 | 9.44065 | -84.84622 | 30541 ft | 443 kts | 231° |
| 2026-05-05 02:40 | 9.42046 | -84.86978 | 31041 ft | 446 kts | 231° |
| 2026-05-05 02:40 | 9.39992 | -84.89369 | 31545 ft | 449 kts | 231° |
| 2026-05-05 02:40 | 9.37936 | -84.91759 | 32045 ft | 453 kts | 231° |
| 2026-05-05 02:40 | 9.35874 | -84.94151 | 32542 ft | 456 kts | 231° |
| 2026-05-05 02:41 | 9.33766 | -84.96595 | 33046 ft | 460 kts | 231° |
| 2026-05-05 02:41 | 9.31642 | -84.99054 | 33550 ft | 463 kts | 231° |
| 2026-05-05 02:41 | 9.29518 | -85.01512 | 33891 ft | 471 kts | 231° |
| 2026-05-05 02:42 | 9.25845 | -85.05761 | 33997 ft | 483 kts | 231° |
| 2026-05-05 02:42 | 9.20731 | -85.11663 | 34000 ft | 479 kts | 231° |
| 2026-05-05 02:43 | 9.17121 | -85.15819 | 33996 ft | 454 kts | 231° |
| 2026-05-05 02:43 | 9.12987 | -85.20574 | 34000 ft | 455 kts | 231° |
| 2026-05-05 02:44 | 9.08748 | -85.25461 | 34002 ft | 467 kts | 231° |
| 2026-05-05 02:44 | 9.04481 | -85.30377 | 34000 ft | 469 kts | 231° |
| 2026-05-05 02:45 | 9.00156 | -85.35358 | 34000 ft | 471 kts | 231° |
| 2026-05-05 02:45 | 8.95835 | -85.40329 | 34000 ft | 472 kts | 230° |
| 2026-05-05 02:46 | 8.91475 | -85.45343 | 34000 ft | 472 kts | 230° |
| 2026-05-05 02:46 | 8.87144 | -85.50321 | 34000 ft | 473 kts | 230° |
| 2026-05-05 02:47 | 8.82801 | -85.55312 | 34000 ft | 473 kts | 230° |
| 2026-05-05 02:47 | 8.78454 | -85.60305 | 34000 ft | 473 kts | 230° |
| 2026-05-05 02:48 | 8.74099 | -85.65305 | 34000 ft | 473 kts | 230° |
| 2026-05-05 02:48 | 8.69773 | -85.70271 | 34000 ft | 473 kts | 230° |
| 2026-05-05 02:49 | 8.65432 | -85.75251 | 34000 ft | 473 kts | 230° |
| 2026-05-05 02:49 | 8.61074 | -85.80249 | 34000 ft | 473 kts | 230° |
| 2026-05-05 02:50 | 8.56710 | -85.85252 | 34000 ft | 473 kts | 230° |
| 2026-05-05 02:50 | 8.52375 | -85.90220 | 34000 ft | 473 kts | 230° |
| 2026-05-05 02:51 | 8.48014 | -85.95217 | 34000 ft | 473 kts | 230° |
| 2026-05-05 02:51 | 8.43660 | -86.00203 | 34000 ft | 473 kts | 230° |
| 2026-05-05 02:52 | 8.39304 | -86.05190 | 34000 ft | 473 kts | 230° |
| 2026-05-05 02:52 | 8.34967 | -86.10154 | 34000 ft | 473 kts | 230° |
| 2026-05-05 02:53 | 8.30619 | -86.15128 | 34000 ft | 473 kts | 230° |
| 2026-05-05 02:53 | 8.26265 | -86.20107 | 34000 ft | 473 kts | 230° |
| 2026-05-05 02:54 | 8.21893 | -86.25105 | 34000 ft | 473 kts | 230° |
| 2026-05-05 02:54 | 8.17537 | -86.30082 | 34000 ft | 473 kts | 230° |
| 2026-05-05 02:55 | 8.13179 | -86.35061 | 34000 ft | 473 kts | 230° |
| 2026-05-05 02:55 | 8.08834 | -86.40023 | 34000 ft | 473 kts | 230° |
| 2026-05-05 02:56 | 8.04473 | -86.45001 | 34000 ft | 473 kts | 230° |
| 2026-05-05 02:56 | 8.00124 | -86.49963 | 34000 ft | 473 kts | 230° |
| 2026-05-05 02:57 | 7.95754 | -86.54949 | 34000 ft | 473 kts | 230° |
| 2026-05-05 02:57 | 7.91413 | -86.59898 | 34000 ft | 473 kts | 230° |
| 2026-05-05 02:58 | 7.87053 | -86.64869 | 34000 ft | 473 kts | 230° |
| 2026-05-05 02:58 | 7.82694 | -86.69836 | 34000 ft | 473 kts | 230° |
| 2026-05-05 02:59 | 7.78327 | -86.74811 | 34000 ft | 473 kts | 230° |
| 2026-05-05 02:59 | 7.73948 | -86.79798 | 34000 ft | 473 kts | 230° |
| 2026-05-05 03:00 | 7.69579 | -86.84771 | 34000 ft | 473 kts | 230° |
| 2026-05-05 03:00 | 7.65214 | -86.89738 | 34000 ft | 473 kts | 230° |
| 2026-05-05 03:01 | 7.60858 | -86.94694 | 34000 ft | 473 kts | 230° |
| 2026-05-05 03:01 | 7.56492 | -86.99660 | 34000 ft | 473 kts | 230° |
| 2026-05-05 03:02 | 7.52134 | -87.04613 | 34000 ft | 473 kts | 230° |
| 2026-05-05 03:02 | 7.47760 | -87.09584 | 34000 ft | 473 kts | 230° |
| 2026-05-05 03:03 | 7.43390 | -87.14549 | 34000 ft | 473 kts | 230° |
| 2026-05-05 03:03 | 7.39027 | -87.19504 | 34000 ft | 473 kts | 230° |
| 2026-05-05 03:04 | 7.34653 | -87.24471 | 34000 ft | 473 kts | 230° |
| 2026-05-05 03:04 | 7.30287 | -87.29427 | 34000 ft | 473 kts | 230° |
| 2026-05-05 03:05 | 7.25915 | -87.34387 | 34000 ft | 473 kts | 230° |
| 2026-05-05 03:05 | 7.21548 | -87.39341 | 34000 ft | 473 kts | 230° |
| 2026-05-05 03:06 | 7.17158 | -87.44318 | 34000 ft | 473 kts | 230° |
| 2026-05-05 03:06 | 7.12788 | -87.49272 | 34000 ft | 473 kts | 230° |
| 2026-05-05 03:07 | 7.08437 | -87.54203 | 34000 ft | 473 kts | 230° |
| 2026-05-05 03:07 | 7.04068 | -87.59153 | 34000 ft | 473 kts | 230° |
| 2026-05-05 03:08 | 6.99679 | -87.64123 | 34000 ft | 473 kts | 230° |
| 2026-05-05 03:08 | 6.95305 | -87.69076 | 34000 ft | 473 kts | 230° |
| 2026-05-05 03:09 | 6.90946 | -87.74009 | 34000 ft | 473 kts | 230° |
| 2026-05-05 03:09 | 6.86551 | -87.78982 | 34000 ft | 473 kts | 230° |
| 2026-05-05 03:10 | 6.82193 | -87.83912 | 34000 ft | 473 kts | 230° |
| 2026-05-05 03:10 | 6.77819 | -87.88858 | 34000 ft | 473 kts | 230° |
| 2026-05-05 03:11 | 6.73432 | -87.93817 | 34000 ft | 473 kts | 230° |
| 2026-05-05 03:11 | 6.69055 | -87.98764 | 34000 ft | 473 kts | 230° |
| 2026-05-05 03:12 | 6.64681 | -88.03706 | 34000 ft | 473 kts | 230° |
| 2026-05-05 03:12 | 6.60296 | -88.08658 | 34000 ft | 473 kts | 230° |
| 2026-05-05 03:13 | 6.55918 | -88.13602 | 34000 ft | 473 kts | 230° |
| 2026-05-05 03:13 | 6.51518 | -88.18569 | 34000 ft | 473 kts | 230° |
| 2026-05-05 03:14 | 6.47145 | -88.23504 | 34000 ft | 473 kts | 230° |
| 2026-05-05 03:14 | 6.42771 | -88.28439 | 34000 ft | 473 kts | 230° |
| 2026-05-05 03:15 | 6.38393 | -88.33377 | 34000 ft | 474 kts | 230° |
| 2026-05-05 03:15 | 6.33994 | -88.38337 | 34000 ft | 474 kts | 230° |
| 2026-05-05 03:16 | 6.29603 | -88.43287 | 34000 ft | 474 kts | 230° |
| 2026-05-05 03:16 | 6.25243 | -88.48200 | 34000 ft | 474 kts | 230° |
| 2026-05-05 03:17 | 6.20834 | -88.53167 | 34000 ft | 474 kts | 230° |
| 2026-05-05 03:17 | 6.16459 | -88.58095 | 34000 ft | 474 kts | 230° |
| 2026-05-05 03:18 | 6.12063 | -88.63045 | 34000 ft | 474 kts | 230° |
| 2026-05-05 03:18 | 6.07681 | -88.67979 | 34000 ft | 474 kts | 230° |
| 2026-05-05 03:19 | 6.01121 | -88.75361 | 34000 ft | 474 kts | 230° |
| 2026-05-05 03:19 | 5.96740 | -88.80290 | 34000 ft | 474 kts | 230° |
| 2026-05-05 03:20 | 5.93082 | -88.84405 | 34000 ft | 474 kts | 230° |
| 2026-05-05 03:20 | 5.88665 | -88.89371 | 34000 ft | 474 kts | 230° |
| 2026-05-05 03:21 | 5.84298 | -88.94280 | 34000 ft | 474 kts | 230° |
| 2026-05-05 03:21 | 5.79905 | -88.99217 | 34000 ft | 474 kts | 230° |
| 2026-05-05 03:22 | 5.75491 | -89.04177 | 34000 ft | 474 kts | 230° |
| 2026-05-05 03:22 | 5.71123 | -89.09084 | 34000 ft | 474 kts | 230° |
| 2026-05-05 03:23 | 5.66732 | -89.14015 | 34000 ft | 474 kts | 230° |
| 2026-05-05 03:23 | 5.62337 | -89.18950 | 34000 ft | 474 kts | 230° |
| 2026-05-05 03:24 | 5.57940 | -89.23885 | 34000 ft | 474 kts | 230° |
| 2026-05-05 03:24 | 5.53537 | -89.28826 | 34000 ft | 474 kts | 230° |
| 2026-05-05 03:25 | 5.49163 | -89.33734 | 34000 ft | 474 kts | 230° |
| 2026-05-05 03:25 | 5.44746 | -89.38688 | 34000 ft | 474 kts | 230° |
| 2026-05-05 03:26 | 5.40358 | -89.43609 | 34000 ft | 474 kts | 230° |
| 2026-05-05 03:26 | 5.35961 | -89.48538 | 34000 ft | 474 kts | 230° |
| 2026-05-05 03:27 | 5.31589 | -89.53439 | 34000 ft | 474 kts | 230° |
| 2026-05-05 03:27 | 5.27177 | -89.58383 | 34000 ft | 474 kts | 230° |
| 2026-05-05 03:28 | 5.22773 | -89.63318 | 34000 ft | 474 kts | 230° |
| 2026-05-05 03:28 | 5.18389 | -89.68228 | 34000 ft | 474 kts | 230° |
| 2026-05-05 03:29 | 5.13979 | -89.73167 | 34000 ft | 474 kts | 230° |
| 2026-05-05 03:29 | 5.09586 | -89.78085 | 34000 ft | 474 kts | 230° |
| 2026-05-05 03:30 | 5.05190 | -89.83007 | 34000 ft | 474 kts | 230° |
| 2026-05-05 03:30 | 5.00807 | -89.87911 | 34000 ft | 474 kts | 230° |
| 2026-05-05 03:31 | 4.96398 | -89.92844 | 34000 ft | 474 kts | 230° |
| 2026-05-05 03:31 | 4.91993 | -89.97772 | 34000 ft | 474 kts | 230° |
| 2026-05-05 03:32 | 4.87605 | -90.02680 | 34000 ft | 474 kts | 230° |
| 2026-05-05 03:32 | 4.83193 | -90.07613 | 34000 ft | 474 kts | 230° |
| 2026-05-05 03:33 | 4.78803 | -90.12521 | 34000 ft | 474 kts | 230° |
| 2026-05-05 03:33 | 4.74411 | -90.17430 | 34000 ft | 474 kts | 230° |
| 2026-05-05 03:34 | 4.70009 | -90.22350 | 34000 ft | 474 kts | 230° |
| 2026-05-05 03:34 | 4.65601 | -90.27275 | 34000 ft | 474 kts | 230° |
| 2026-05-05 03:35 | 4.61228 | -90.32160 | 34000 ft | 474 kts | 230° |
| 2026-05-05 03:35 | 4.56795 | -90.37110 | 34000 ft | 474 kts | 230° |
| 2026-05-05 03:36 | 4.52422 | -90.41993 | 34000 ft | 474 kts | 230° |
| 2026-05-05 03:36 | 4.48018 | -90.46909 | 34000 ft | 474 kts | 230° |
| 2026-05-05 03:37 | 4.43591 | -90.51851 | 34000 ft | 474 kts | 230° |
| 2026-05-05 03:37 | 4.39197 | -90.56754 | 34000 ft | 474 kts | 230° |
| 2026-05-05 03:38 | 4.34805 | -90.61655 | 34000 ft | 474 kts | 230° |
| 2026-05-05 03:38 | 4.30409 | -90.66559 | 34000 ft | 474 kts | 230° |
| 2026-05-05 03:39 | 4.25981 | -90.71498 | 34000 ft | 474 kts | 230° |
| 2026-05-05 03:39 | 4.21600 | -90.76384 | 34000 ft | 474 kts | 230° |
| 2026-05-05 03:40 | 4.17176 | -90.81317 | 34000 ft | 474 kts | 230° |
| 2026-05-05 03:40 | 4.12772 | -90.86228 | 34000 ft | 474 kts | 230° |
| 2026-05-05 03:41 | 4.08371 | -90.91133 | 34000 ft | 474 kts | 230° |
| 2026-05-05 03:41 | 4.03983 | -90.96024 | 34000 ft | 474 kts | 230° |
| 2026-05-05 03:42 | 3.99576 | -91.00936 | 34000 ft | 474 kts | 230° |
| 2026-05-05 03:42 | 3.95160 | -91.05858 | 34000 ft | 474 kts | 230° |
| 2026-05-05 03:43 | 3.90874 | -91.10868 | 34000 ft | 473 kts | 233° |
| 2026-05-05 03:43 | 3.86894 | -91.16085 | 34000 ft | 472 kts | 235° |
| 2026-05-05 03:44 | 3.83036 | -91.21396 | 34000 ft | 472 kts | 236° |
| 2026-05-05 03:44 | 3.79215 | -91.26751 | 34000 ft | 472 kts | 236° |
| 2026-05-05 03:45 | 3.75419 | -91.32097 | 34000 ft | 472 kts | 236° |
| 2026-05-05 03:45 | 3.71614 | -91.37457 | 34000 ft | 472 kts | 236° |
| 2026-05-05 03:46 | 3.67809 | -91.42810 | 34000 ft | 472 kts | 236° |
| 2026-05-05 03:46 | 3.63973 | -91.48197 | 34000 ft | 472 kts | 236° |
| 2026-05-05 03:47 | 3.60164 | -91.53539 | 34000 ft | 472 kts | 236° |
| 2026-05-05 03:47 | 3.56346 | -91.58888 | 34000 ft | 472 kts | 236° |
| 2026-05-05 03:48 | 3.52524 | -91.64237 | 34000 ft | 472 kts | 236° |
| 2026-05-05 03:48 | 3.48725 | -91.69550 | 34000 ft | 472 kts | 236° |
| 2026-05-05 03:49 | 3.44882 | -91.74922 | 34000 ft | 472 kts | 236° |
| 2026-05-05 03:49 | 3.41077 | -91.80239 | 34000 ft | 472 kts | 236° |
| 2026-05-05 03:50 | 3.37236 | -91.85602 | 34000 ft | 472 kts | 236° |
| 2026-05-05 03:50 | 3.33421 | -91.90930 | 34000 ft | 472 kts | 236° |
| 2026-05-05 03:51 | 3.29591 | -91.96275 | 34000 ft | 472 kts | 236° |
| 2026-05-05 03:51 | 3.25767 | -92.01612 | 34000 ft | 472 kts | 236° |
| 2026-05-05 03:52 | 3.21942 | -92.06948 | 34000 ft | 472 kts | 236° |
| 2026-05-05 03:52 | 3.18107 | -92.12298 | 34000 ft | 472 kts | 236° |
| 2026-05-05 03:53 | 3.14298 | -92.17611 | 34000 ft | 472 kts | 236° |
| 2026-05-05 03:53 | 3.10463 | -92.22959 | 34000 ft | 472 kts | 236° |
| 2026-05-05 03:54 | 3.06629 | -92.28305 | 34000 ft | 472 kts | 236° |
| 2026-05-05 03:54 | 3.02792 | -92.33654 | 34000 ft | 472 kts | 236° |
| 2026-05-05 03:55 | 2.98976 | -92.38974 | 34000 ft | 472 kts | 236° |
| 2026-05-05 03:55 | 2.95154 | -92.44300 | 34000 ft | 472 kts | 236° |
| 2026-05-05 03:56 | 2.91325 | -92.49635 | 34000 ft | 472 kts | 236° |
| 2026-05-05 03:56 | 2.87479 | -92.54995 | 34000 ft | 472 kts | 236° |
| 2026-05-05 03:57 | 2.83651 | -92.60328 | 34000 ft | 472 kts | 236° |
| 2026-05-05 03:57 | 2.79833 | -92.65646 | 34000 ft | 472 kts | 236° |
| 2026-05-05 03:58 | 2.75996 | -92.70990 | 34000 ft | 472 kts | 236° |
| 2026-05-05 03:58 | 2.72169 | -92.76320 | 34000 ft | 472 kts | 236° |
| 2026-05-05 03:59 | 2.68328 | -92.81668 | 34000 ft | 472 kts | 236° |
| 2026-05-05 03:59 | 2.64504 | -92.86992 | 34000 ft | 472 kts | 236° |
| 2026-05-05 04:00 | 2.60673 | -92.92326 | 34000 ft | 472 kts | 236° |
| 2026-05-05 04:00 | 2.56843 | -92.97656 | 34000 ft | 472 kts | 236° |
| 2026-05-05 04:01 | 2.53017 | -93.02981 | 34000 ft | 472 kts | 236° |
| 2026-05-05 04:01 | 2.49181 | -93.08319 | 34000 ft | 472 kts | 236° |
| 2026-05-05 04:02 | 2.45996 | -93.12752 | 34000 ft | 472 kts | 236° |
| 2026-05-05 04:02 | 2.42150 | -93.18102 | 34000 ft | 472 kts | 236° |
| 2026-05-05 04:03 | 2.38328 | -93.23419 | 34000 ft | 472 kts | 236° |
| 2026-05-05 04:03 | 2.34484 | -93.28767 | 34000 ft | 472 kts | 236° |
| 2026-05-05 04:04 | 2.30661 | -93.34083 | 34000 ft | 472 kts | 236° |
| 2026-05-05 04:04 | 2.26829 | -93.39413 | 34000 ft | 472 kts | 236° |
| 2026-05-05 04:05 | 2.22995 | -93.44743 | 34000 ft | 472 kts | 236° |
| 2026-05-05 04:05 | 2.19162 | -93.50073 | 34000 ft | 472 kts | 236° |
| 2026-05-05 04:06 | 2.15309 | -93.55430 | 34000 ft | 472 kts | 236° |
| 2026-05-05 04:06 | 2.11478 | -93.60756 | 34000 ft | 472 kts | 236° |
| 2026-05-05 04:07 | 2.07648 | -93.66080 | 34000 ft | 472 kts | 236° |
| 2026-05-05 04:07 | 2.03828 | -93.71388 | 34000 ft | 472 kts | 236° |
| 2026-05-05 04:08 | 1.99990 | -93.76723 | 34000 ft | 472 kts | 236° |
| 2026-05-05 04:08 | 1.96160 | -93.82044 | 34000 ft | 472 kts | 236° |
| 2026-05-05 04:09 | 1.92311 | -93.87393 | 34000 ft | 472 kts | 236° |
| 2026-05-05 04:09 | 1.88476 | -93.92721 | 34000 ft | 472 kts | 236° |
| 2026-05-05 04:10 | 1.84653 | -93.98032 | 34000 ft | 472 kts | 236° |
| 2026-05-05 04:10 | 1.80795 | -94.03391 | 34000 ft | 472 kts | 236° |
| 2026-05-05 04:11 | 1.76957 | -94.08723 | 34000 ft | 472 kts | 236° |
| 2026-05-05 04:11 | 1.73142 | -94.14022 | 34000 ft | 472 kts | 236° |
| 2026-05-05 04:12 | 1.69297 | -94.19362 | 34000 ft | 472 kts | 236° |
| 2026-05-05 04:12 | 1.65454 | -94.24698 | 34000 ft | 472 kts | 236° |
| 2026-05-05 04:13 | 1.61628 | -94.30011 | 34000 ft | 472 kts | 236° |
| 2026-05-05 04:13 | 1.57799 | -94.35327 | 34000 ft | 472 kts | 236° |
| 2026-05-05 04:14 | 1.53955 | -94.40663 | 34000 ft | 472 kts | 236° |
| 2026-05-05 04:14 | 1.50130 | -94.45975 | 34000 ft | 472 kts | 236° |
| 2026-05-05 04:15 | 1.46284 | -94.51313 | 34000 ft | 472 kts | 236° |
| 2026-05-05 04:15 | 1.42433 | -94.56659 | 34000 ft | 472 kts | 236° |
| 2026-05-05 04:16 | 1.38605 | -94.61972 | 34000 ft | 472 kts | 236° |
| 2026-05-05 04:16 | 1.34773 | -94.67291 | 34000 ft | 472 kts | 236° |
| 2026-05-05 04:17 | 1.30931 | -94.72622 | 34000 ft | 472 kts | 236° |
| 2026-05-05 04:17 | 1.27079 | -94.77967 | 34000 ft | 472 kts | 236° |
| 2026-05-05 04:18 | 1.23249 | -94.83283 | 34000 ft | 472 kts | 236° |
| 2026-05-05 04:18 | 1.19418 | -94.88598 | 34000 ft | 472 kts | 236° |
| 2026-05-05 04:19 | 1.15576 | -94.93930 | 34000 ft | 472 kts | 236° |
| 2026-05-05 04:19 | 1.11753 | -94.99233 | 34000 ft | 472 kts | 236° |
| 2026-05-05 04:20 | 1.07905 | -95.04573 | 34000 ft | 472 kts | 236° |
| 2026-05-05 04:20 | 1.04077 | -95.09882 | 34000 ft | 472 kts | 236° |
| 2026-05-05 04:21 | 1.00222 | -95.15231 | 34000 ft | 472 kts | 236° |
| 2026-05-05 04:21 | 0.96389 | -95.20547 | 34000 ft | 472 kts | 236° |
| 2026-05-05 04:22 | 0.92551 | -95.25872 | 34000 ft | 472 kts | 236° |
| 2026-05-05 04:22 | 0.88718 | -95.31188 | 34000 ft | 472 kts | 236° |
| 2026-05-05 04:23 | 0.84888 | -95.36500 | 34000 ft | 472 kts | 236° |
| 2026-05-05 04:23 | 0.81031 | -95.41849 | 34000 ft | 472 kts | 236° |
| 2026-05-05 04:24 | 0.77196 | -95.47167 | 34000 ft | 472 kts | 236° |
| 2026-05-05 04:25 | 0.71452 | -95.55134 | 34000 ft | 472 kts | 236° |
| 2026-05-05 04:25 | 0.67589 | -95.60490 | 34000 ft | 472 kts | 236° |
| 2026-05-05 04:26 | 0.63752 | -95.65811 | 34000 ft | 472 kts | 236° |
| 2026-05-05 04:26 | 0.59929 | -95.71112 | 34000 ft | 472 kts | 236° |
| 2026-05-05 04:27 | 0.56094 | -95.76430 | 34000 ft | 472 kts | 236° |
| 2026-05-05 04:27 | 0.52256 | -95.81753 | 34000 ft | 472 kts | 236° |
| 2026-05-05 04:28 | 0.48398 | -95.87101 | 34000 ft | 472 kts | 236° |
| 2026-05-05 04:28 | 0.44569 | -95.92410 | 34000 ft | 472 kts | 236° |
| 2026-05-05 04:29 | 0.40728 | -95.97736 | 34000 ft | 472 kts | 236° |
| 2026-05-05 04:29 | 0.36898 | -96.03046 | 34000 ft | 472 kts | 236° |
| 2026-05-05 04:30 | 0.33065 | -96.08361 | 34000 ft | 472 kts | 236° |
| 2026-05-05 04:30 | 0.29211 | -96.13704 | 34000 ft | 472 kts | 236° |
| 2026-05-05 04:31 | 0.25368 | -96.19032 | 34000 ft | 472 kts | 236° |
| 2026-05-05 04:31 | 0.21528 | -96.24356 | 34000 ft | 472 kts | 236° |
| 2026-05-05 04:32 | 0.17688 | -96.29680 | 34000 ft | 472 kts | 236° |
| 2026-05-05 04:32 | 0.13857 | -96.34991 | 34000 ft | 472 kts | 236° |
| 2026-05-05 04:33 | 0.10011 | -96.40323 | 34000 ft | 472 kts | 236° |
| 2026-05-05 04:33 | 0.06185 | -96.45627 | 34000 ft | 472 kts | 236° |
| 2026-05-05 04:34 | 0.02347 | -96.50947 | 34000 ft | 472 kts | 236° |
| 2026-05-05 04:34 | -0.01484 | -96.56259 | 34000 ft | 472 kts | 236° |
| 2026-05-05 04:35 | -0.05343 | -96.61609 | 34000 ft | 471 kts | 236° |
| 2026-05-05 04:35 | -0.09150 | -96.66887 | 34000 ft | 471 kts | 236° |
| 2026-05-05 04:36 | -0.12997 | -96.72220 | 34000 ft | 471 kts | 236° |
| 2026-05-05 04:36 | -0.16815 | -96.77513 | 34000 ft | 471 kts | 236° |
| 2026-05-05 04:37 | -0.20643 | -96.82820 | 34000 ft | 471 kts | 236° |
| 2026-05-05 04:37 | -0.24478 | -96.88137 | 34000 ft | 471 kts | 236° |
| 2026-05-05 04:38 | -0.28297 | -96.93432 | 34000 ft | 471 kts | 236° |
| 2026-05-05 04:38 | -0.32140 | -96.98760 | 34000 ft | 471 kts | 236° |
| 2026-05-05 04:39 | -0.35967 | -97.04066 | 34000 ft | 471 kts | 236° |
| 2026-05-05 04:39 | -0.39775 | -97.09345 | 34000 ft | 471 kts | 236° |
| 2026-05-05 04:40 | -0.43606 | -97.14657 | 34000 ft | 471 kts | 236° |
| 2026-05-05 04:40 | -0.47443 | -97.19977 | 34000 ft | 471 kts | 236° |
| 2026-05-05 04:41 | -0.51259 | -97.25269 | 34000 ft | 471 kts | 236° |
| 2026-05-05 04:41 | -0.55092 | -97.30585 | 34000 ft | 471 kts | 236° |
| 2026-05-05 04:42 | -0.58912 | -97.35881 | 34000 ft | 471 kts | 236° |
| 2026-05-05 04:42 | -0.62736 | -97.41183 | 34000 ft | 471 kts | 236° |
| 2026-05-05 04:43 | -0.65943 | -97.45630 | 34000 ft | 471 kts | 236° |
| 2026-05-05 04:43 | -0.69764 | -97.50930 | 34000 ft | 471 kts | 236° |
| 2026-05-05 04:44 | -0.73589 | -97.56234 | 34000 ft | 471 kts | 236° |
| 2026-05-05 04:44 | -0.77417 | -97.61542 | 34000 ft | 471 kts | 236° |
| 2026-05-05 04:45 | -0.81248 | -97.66855 | 34000 ft | 471 kts | 236° |
| 2026-05-05 04:45 | -0.85064 | -97.72149 | 34000 ft | 471 kts | 236° |
| 2026-05-05 04:46 | -0.88905 | -97.77475 | 34000 ft | 471 kts | 236° |
| 2026-05-05 04:46 | -0.92738 | -97.82793 | 34000 ft | 471 kts | 236° |
| 2026-05-05 04:47 | -0.96544 | -97.88071 | 34000 ft | 471 kts | 236° |
| 2026-05-05 04:47 | -1.00396 | -97.93414 | 34000 ft | 471 kts | 236° |
| 2026-05-05 04:48 | -1.04216 | -97.98714 | 34000 ft | 471 kts | 236° |
| 2026-05-05 04:48 | -1.08037 | -98.04015 | 34000 ft | 471 kts | 236° |
| 2026-05-05 04:49 | -1.11871 | -98.09334 | 34000 ft | 471 kts | 236° |
| 2026-05-05 04:49 | -1.15693 | -98.14636 | 34000 ft | 471 kts | 236° |
| 2026-05-05 04:50 | -1.19510 | -98.19933 | 34000 ft | 471 kts | 236° |
| 2026-05-05 04:50 | -1.23356 | -98.25269 | 34000 ft | 471 kts | 236° |
| 2026-05-05 04:51 | -1.27174 | -98.30568 | 34000 ft | 471 kts | 236° |
| 2026-05-05 04:51 | -1.30995 | -98.35870 | 34000 ft | 471 kts | 236° |
| 2026-05-05 04:52 | -1.34836 | -98.41201 | 34000 ft | 471 kts | 236° |
| 2026-05-05 04:52 | -1.38641 | -98.46482 | 34000 ft | 471 kts | 236° |
| 2026-05-05 04:53 | -1.42466 | -98.51791 | 34000 ft | 471 kts | 236° |
| 2026-05-05 04:53 | -1.46303 | -98.57117 | 34000 ft | 471 kts | 236° |
| 2026-05-05 04:54 | -1.50116 | -98.62410 | 34000 ft | 471 kts | 236° |
| 2026-05-05 04:54 | -1.53960 | -98.67746 | 34000 ft | 471 kts | 236° |
| 2026-05-05 04:55 | -1.57794 | -98.73069 | 34000 ft | 471 kts | 236° |
| 2026-05-05 04:55 | -1.61610 | -98.78368 | 34000 ft | 471 kts | 236° |
| 2026-05-05 04:56 | -1.65433 | -98.83677 | 34000 ft | 471 kts | 236° |
| 2026-05-05 04:56 | -1.69259 | -98.88990 | 34000 ft | 471 kts | 236° |
| 2026-05-05 04:57 | -1.73068 | -98.94279 | 34000 ft | 471 kts | 236° |
| 2026-05-05 04:57 | -1.76907 | -98.99612 | 34000 ft | 471 kts | 236° |
| 2026-05-05 04:58 | -1.80720 | -99.04908 | 34000 ft | 471 kts | 236° |
| 2026-05-05 04:58 | -1.84545 | -99.10221 | 34000 ft | 471 kts | 236° |
| 2026-05-05 04:59 | -1.88382 | -99.15552 | 34000 ft | 471 kts | 236° |
| 2026-05-05 04:59 | -1.92201 | -99.20858 | 34000 ft | 471 kts | 236° |
| 2026-05-05 05:00 | -1.96014 | -99.26156 | 34000 ft | 471 kts | 236° |
| 2026-05-05 05:00 | -1.99841 | -99.31473 | 34000 ft | 471 kts | 236° |
| 2026-05-05 05:01 | -2.03662 | -99.36784 | 34000 ft | 471 kts | 236° |
| 2026-05-05 05:01 | -2.07464 | -99.42068 | 34000 ft | 471 kts | 236° |
| 2026-05-05 05:02 | -2.11296 | -99.47395 | 34000 ft | 471 kts | 236° |
| 2026-05-05 05:02 | -2.15119 | -99.52710 | 34000 ft | 471 kts | 236° |
| 2026-05-05 05:03 | -2.18939 | -99.58021 | 34000 ft | 471 kts | 236° |
| 2026-05-05 05:03 | -2.22783 | -99.63365 | 34000 ft | 471 kts | 236° |
| 2026-05-05 05:04 | -2.26597 | -99.68668 | 34000 ft | 471 kts | 236° |
| 2026-05-05 05:04 | -2.30420 | -99.73986 | 34000 ft | 471 kts | 236° |
| 2026-05-05 05:05 | -2.34232 | -99.79286 | 34000 ft | 471 kts | 236° |
| 2026-05-05 05:05 | -2.38059 | -99.84610 | 34000 ft | 471 kts | 236° |
| 2026-05-05 05:06 | -2.41892 | -99.89943 | 34000 ft | 471 kts | 236° |
| 2026-05-05 05:06 | -2.45697 | -99.95236 | 34000 ft | 471 kts | 236° |
| 2026-05-05 05:07 | -2.49522 | -100.00559 | 34000 ft | 471 kts | 236° |
| 2026-05-05 05:07 | -2.53354 | -100.05891 | 34000 ft | 471 kts | 236° |
| 2026-05-05 05:08 | -2.57160 | -100.11189 | 34000 ft | 471 kts | 236° |
| 2026-05-05 05:08 | -2.60973 | -100.16497 | 34000 ft | 471 kts | 236° |
| 2026-05-05 05:09 | -2.64814 | -100.21844 | 34000 ft | 471 kts | 236° |
| 2026-05-05 05:09 | -2.68630 | -100.27156 | 34000 ft | 471 kts | 236° |
| 2026-05-05 05:10 | -2.72450 | -100.32475 | 34000 ft | 471 kts | 236° |
| 2026-05-05 05:10 | -2.76255 | -100.37774 | 34000 ft | 471 kts | 236° |
| 2026-05-05 05:11 | -2.80068 | -100.43085 | 34000 ft | 471 kts | 236° |
| 2026-05-05 05:11 | -2.83891 | -100.48409 | 34000 ft | 471 kts | 236° |
| 2026-05-05 05:12 | -2.87725 | -100.53751 | 34000 ft | 471 kts | 236° |
| 2026-05-05 05:12 | -2.91541 | -100.59069 | 34000 ft | 471 kts | 236° |
| 2026-05-05 05:13 | -2.95352 | -100.64379 | 34000 ft | 471 kts | 236° |
| 2026-05-05 05:13 | -2.99167 | -100.69697 | 34000 ft | 471 kts | 236° |
| 2026-05-05 05:14 | -3.02980 | -100.75011 | 34000 ft | 471 kts | 236° |
| 2026-05-05 05:14 | -3.06800 | -100.80336 | 34000 ft | 471 kts | 236° |
| 2026-05-05 05:15 | -3.10611 | -100.85650 | 34000 ft | 471 kts | 236° |
| 2026-05-05 05:15 | -3.14433 | -100.90981 | 34000 ft | 471 kts | 236° |
| 2026-05-05 05:16 | -3.18264 | -100.96324 | 34000 ft | 471 kts | 236° |
| 2026-05-05 05:16 | -3.22062 | -101.01622 | 34000 ft | 471 kts | 236° |
| 2026-05-05 05:17 | -3.25900 | -101.06976 | 34000 ft | 471 kts | 236° |
| 2026-05-05 05:17 | -3.29700 | -101.12277 | 34000 ft | 471 kts | 236° |
| 2026-05-05 05:18 | -3.33525 | -101.17616 | 34000 ft | 471 kts | 236° |
| 2026-05-05 05:18 | -3.37339 | -101.22938 | 34000 ft | 471 kts | 236° |
| 2026-05-05 05:19 | -3.41148 | -101.28256 | 34000 ft | 471 kts | 236° |
| 2026-05-05 05:19 | -3.44961 | -101.33580 | 34000 ft | 471 kts | 236° |
| 2026-05-05 05:20 | -3.48137 | -101.38014 | 34000 ft | 471 kts | 236° |
| 2026-05-05 05:20 | -3.52584 | -101.44225 | 34000 ft | 471 kts | 236° |
| 2026-05-05 05:21 | -3.55761 | -101.48662 | 34000 ft | 471 kts | 236° |
| 2026-05-05 05:21 | -3.59579 | -101.53996 | 34000 ft | 471 kts | 236° |
| 2026-05-05 05:22 | -3.63406 | -101.59344 | 34000 ft | 471 kts | 236° |
| 2026-05-05 05:22 | -3.67210 | -101.64659 | 34000 ft | 471 kts | 236° |
| 2026-05-05 05:23 | -3.71011 | -101.69973 | 34000 ft | 471 kts | 236° |
| 2026-05-05 05:23 | -3.74846 | -101.75333 | 34000 ft | 471 kts | 236° |
| 2026-05-05 05:24 | -3.78637 | -101.80634 | 34000 ft | 471 kts | 236° |
| 2026-05-05 05:24 | -3.82460 | -101.85981 | 34000 ft | 471 kts | 236° |
| 2026-05-05 05:25 | -3.86282 | -101.91327 | 34000 ft | 471 kts | 236° |
| 2026-05-05 05:25 | -3.90071 | -101.96627 | 34000 ft | 471 kts | 236° |
| 2026-05-05 05:26 | -3.93880 | -102.01958 | 34000 ft | 471 kts | 236° |
| 2026-05-05 05:26 | -3.97707 | -102.07313 | 34000 ft | 471 kts | 236° |
| 2026-05-05 05:27 | -4.01496 | -102.12615 | 34000 ft | 471 kts | 236° |
| 2026-05-05 05:27 | -4.07214 | -102.20621 | 34000 ft | 471 kts | 236° |
| 2026-05-05 05:28 | -4.11016 | -102.25946 | 34000 ft | 471 kts | 236° |
| 2026-05-05 05:28 | -4.14826 | -102.31282 | 34000 ft | 471 kts | 236° |
| 2026-05-05 05:29 | -4.18642 | -102.36628 | 34000 ft | 471 kts | 236° |
| 2026-05-05 05:29 | -4.22449 | -102.41962 | 34000 ft | 471 kts | 236° |
| 2026-05-05 05:30 | -4.26261 | -102.47304 | 34000 ft | 471 kts | 236° |
| 2026-05-05 05:30 | -4.30047 | -102.52611 | 34000 ft | 471 kts | 236° |
| 2026-05-05 05:31 | -4.33869 | -102.57969 | 34000 ft | 471 kts | 236° |
| 2026-05-05 05:31 | -4.37680 | -102.63313 | 34000 ft | 471 kts | 236° |
| 2026-05-05 05:32 | -4.41485 | -102.68650 | 34000 ft | 471 kts | 236° |
| 2026-05-05 05:32 | -4.45287 | -102.73983 | 34000 ft | 471 kts | 236° |
| 2026-05-05 05:33 | -4.49091 | -102.79321 | 34000 ft | 471 kts | 236° |
| 2026-05-05 05:33 | -4.52888 | -102.84649 | 34000 ft | 471 kts | 236° |
| 2026-05-05 05:34 | -4.56696 | -102.89995 | 34000 ft | 471 kts | 236° |
| 2026-05-05 05:34 | -4.60492 | -102.95325 | 34000 ft | 471 kts | 236° |
| 2026-05-05 05:35 | -4.64286 | -103.00652 | 34000 ft | 471 kts | 236° |
| 2026-05-05 05:35 | -4.68104 | -103.06015 | 34000 ft | 471 kts | 236° |
| 2026-05-05 05:36 | -4.71893 | -103.11338 | 34000 ft | 471 kts | 236° |
| 2026-05-05 05:36 | -4.75706 | -103.16696 | 34000 ft | 471 kts | 236° |
| 2026-05-05 05:37 | -4.79516 | -103.22050 | 34000 ft | 471 kts | 236° |
| 2026-05-05 05:37 | -4.83314 | -103.27390 | 34000 ft | 471 kts | 236° |
| 2026-05-05 05:38 | -4.87111 | -103.32728 | 34000 ft | 471 kts | 236° |
| 2026-05-05 05:38 | -4.90893 | -103.38049 | 34000 ft | 471 kts | 236° |
| 2026-05-05 05:39 | -4.94700 | -103.43405 | 34000 ft | 471 kts | 236° |
| 2026-05-05 05:39 | -4.98502 | -103.48753 | 34000 ft | 471 kts | 236° |
| 2026-05-05 05:40 | -5.02309 | -103.54111 | 34000 ft | 471 kts | 236° |
| 2026-05-05 05:40 | -5.06089 | -103.59433 | 34000 ft | 471 kts | 236° |
| 2026-05-05 05:41 | -5.09903 | -103.64803 | 34000 ft | 471 kts | 236° |
| 2026-05-05 05:41 | -5.13705 | -103.70158 | 34000 ft | 471 kts | 236° |
| 2026-05-05 05:42 | -5.17475 | -103.75468 | 34000 ft | 471 kts | 236° |
| 2026-05-05 05:42 | -5.21270 | -103.80816 | 34000 ft | 471 kts | 236° |
| 2026-05-05 05:43 | -5.25077 | -103.86181 | 34000 ft | 471 kts | 236° |
| 2026-05-05 05:43 | -5.28866 | -103.91523 | 34000 ft | 471 kts | 236° |
| 2026-05-05 05:44 | -5.32667 | -103.96882 | 34000 ft | 471 kts | 236° |
| 2026-05-05 05:44 | -5.36459 | -104.02231 | 34000 ft | 471 kts | 236° |
| 2026-05-05 05:45 | -5.40265 | -104.07601 | 34000 ft | 471 kts | 236° |
| 2026-05-05 05:45 | -5.44036 | -104.12922 | 34000 ft | 471 kts | 236° |
| 2026-05-05 05:46 | -5.47836 | -104.18285 | 34000 ft | 471 kts | 236° |
| 2026-05-05 05:46 | -5.51638 | -104.23652 | 34000 ft | 471 kts | 236° |
| 2026-05-05 05:47 | -5.55419 | -104.28991 | 34000 ft | 471 kts | 236° |
| 2026-05-05 05:47 | -5.59221 | -104.34362 | 34000 ft | 471 kts | 236° |
| 2026-05-05 05:48 | -5.63017 | -104.39725 | 34000 ft | 471 kts | 236° |
| 2026-05-05 05:48 | -5.66801 | -104.45073 | 34000 ft | 471 kts | 236° |
| 2026-05-05 05:49 | -5.70584 | -104.50422 | 34000 ft | 471 kts | 236° |
| 2026-05-05 05:49 | -5.74377 | -104.55785 | 34000 ft | 471 kts | 236° |
| 2026-05-05 05:50 | -5.78162 | -104.61139 | 34000 ft | 471 kts | 236° |
| 2026-05-05 05:50 | -5.81951 | -104.66499 | 34000 ft | 471 kts | 236° |
| 2026-05-05 05:51 | -5.85746 | -104.71869 | 34000 ft | 471 kts | 236° |
| 2026-05-05 05:51 | -5.89529 | -104.77225 | 34000 ft | 471 kts | 236° |
| 2026-05-05 05:52 | -5.93319 | -104.82591 | 34000 ft | 471 kts | 236° |
| 2026-05-05 05:52 | -5.97109 | -104.87958 | 34000 ft | 471 kts | 236° |
| 2026-05-05 05:53 | -6.00897 | -104.93325 | 34000 ft | 470 kts | 236° |
| 2026-05-05 05:53 | -6.04682 | -104.98688 | 34000 ft | 470 kts | 236° |
| 2026-05-05 05:54 | -6.08452 | -105.04032 | 34000 ft | 470 kts | 236° |
| 2026-05-05 05:54 | -6.12240 | -105.09403 | 34000 ft | 471 kts | 236° |
| 2026-05-05 05:55 | -6.16030 | -105.14779 | 34000 ft | 471 kts | 236° |
| 2026-05-05 05:55 | -6.19810 | -105.20142 | 34000 ft | 471 kts | 236° |
| 2026-05-05 05:56 | -6.23577 | -105.25486 | 34000 ft | 471 kts | 236° |
| 2026-05-05 05:56 | -6.27379 | -105.30883 | 34000 ft | 470 kts | 236° |
| 2026-05-05 05:57 | -6.31153 | -105.36243 | 34000 ft | 470 kts | 236° |
| 2026-05-05 05:57 | -6.34931 | -105.41608 | 34000 ft | 470 kts | 236° |
| 2026-05-05 05:58 | -6.38708 | -105.46974 | 34000 ft | 470 kts | 236° |
| 2026-05-05 05:58 | -6.42483 | -105.52340 | 34000 ft | 470 kts | 236° |
| 2026-05-05 05:59 | -6.46263 | -105.57713 | 34000 ft | 470 kts | 236° |
| 2026-05-05 05:59 | -6.50048 | -105.63096 | 34000 ft | 470 kts | 236° |
| 2026-05-05 06:00 | -6.53830 | -105.68474 | 34000 ft | 470 kts | 236° |
| 2026-05-05 06:00 | -6.57584 | -105.73816 | 34000 ft | 470 kts | 236° |
| 2026-05-05 06:01 | -6.60739 | -105.78307 | 34000 ft | 470 kts | 236° |
| 2026-05-05 06:01 | -6.64526 | -105.83698 | 34000 ft | 470 kts | 236° |
| 2026-05-05 06:02 | -6.68297 | -105.89069 | 34000 ft | 470 kts | 236° |
| 2026-05-05 06:02 | -6.72060 | -105.94429 | 34000 ft | 470 kts | 236° |
| 2026-05-05 06:03 | -6.75830 | -105.99801 | 34000 ft | 470 kts | 236° |
| 2026-05-05 06:03 | -6.79624 | -106.05208 | 34000 ft | 470 kts | 236° |
| 2026-05-05 06:04 | -6.83370 | -106.10551 | 34000 ft | 470 kts | 236° |
| 2026-05-05 06:04 | -6.87148 | -106.15939 | 34000 ft | 470 kts | 236° |
| 2026-05-05 06:05 | -6.90919 | -106.21319 | 34000 ft | 470 kts | 236° |
| 2026-05-05 06:05 | -6.94695 | -106.26709 | 34000 ft | 470 kts | 236° |
| 2026-05-05 06:06 | -6.98464 | -106.32090 | 34000 ft | 470 kts | 236° |
| 2026-05-05 06:06 | -7.02226 | -106.37462 | 34000 ft | 470 kts | 236° |
| 2026-05-05 06:07 | -7.06003 | -106.42858 | 34000 ft | 470 kts | 236° |
| 2026-05-05 06:07 | -7.09768 | -106.48239 | 34000 ft | 470 kts | 236° |
| 2026-05-05 06:08 | -7.13555 | -106.53652 | 34000 ft | 470 kts | 236° |
| 2026-05-05 06:08 | -7.17316 | -106.59030 | 34000 ft | 470 kts | 236° |
| 2026-05-05 06:09 | -7.21087 | -106.64424 | 34000 ft | 470 kts | 236° |
| 2026-05-05 06:09 | -7.24849 | -106.69809 | 34000 ft | 470 kts | 236° |
| 2026-05-05 06:10 | -7.28608 | -106.75189 | 34000 ft | 470 kts | 236° |
| 2026-05-05 06:10 | -7.32365 | -106.80569 | 34000 ft | 470 kts | 236° |
| 2026-05-05 06:11 | -7.36156 | -106.85999 | 34000 ft | 470 kts | 236° |
| 2026-05-05 06:11 | -7.39905 | -106.91371 | 34000 ft | 470 kts | 236° |
| 2026-05-05 06:12 | -7.43669 | -106.96767 | 34000 ft | 470 kts | 236° |
| 2026-05-05 06:12 | -7.47421 | -107.02146 | 34000 ft | 470 kts | 236° |
| 2026-05-05 06:13 | -7.51186 | -107.07547 | 34000 ft | 470 kts | 237° |
| 2026-05-05 06:13 | -7.54952 | -107.12951 | 34000 ft | 470 kts | 237° |
| 2026-05-05 06:14 | -7.58730 | -107.18373 | 34000 ft | 470 kts | 237° |
| 2026-05-05 06:14 | -7.62481 | -107.23759 | 34000 ft | 470 kts | 237° |
| 2026-05-05 06:15 | -7.66221 | -107.29132 | 34000 ft | 470 kts | 237° |
| 2026-05-05 06:15 | -7.69987 | -107.34543 | 34000 ft | 470 kts | 237° |
| 2026-05-05 06:16 | -7.73748 | -107.39949 | 34000 ft | 470 kts | 237° |
| 2026-05-05 06:16 | -7.77502 | -107.45347 | 34000 ft | 470 kts | 237° |
| 2026-05-05 06:17 | -7.81268 | -107.50765 | 34000 ft | 470 kts | 237° |
| 2026-05-05 06:17 | -7.85012 | -107.56152 | 34000 ft | 470 kts | 237° |
| 2026-05-05 06:18 | -7.88756 | -107.61542 | 34000 ft | 470 kts | 237° |
| 2026-05-05 06:18 | -7.92524 | -107.66968 | 34000 ft | 470 kts | 237° |
| 2026-05-05 06:19 | -7.96275 | -107.72372 | 34000 ft | 470 kts | 237° |
| 2026-05-05 06:19 | -8.00036 | -107.77792 | 34000 ft | 470 kts | 237° |
| 2026-05-05 06:20 | -8.03763 | -107.83164 | 34000 ft | 470 kts | 237° |
| 2026-05-05 06:20 | -8.07520 | -107.88582 | 34000 ft | 470 kts | 237° |
| 2026-05-05 06:21 | -8.11279 | -107.94005 | 34000 ft | 470 kts | 237° |
| 2026-05-05 06:21 | -8.15025 | -107.99413 | 34000 ft | 470 kts | 237° |
| 2026-05-05 06:22 | -8.18777 | -108.04829 | 34000 ft | 470 kts | 237° |
| 2026-05-05 06:22 | -8.22516 | -108.10230 | 34000 ft | 470 kts | 237° |
| 2026-05-05 06:23 | -8.26258 | -108.15637 | 34000 ft | 470 kts | 237° |
| 2026-05-05 06:23 | -8.30017 | -108.21070 | 34000 ft | 470 kts | 237° |
| 2026-05-05 06:24 | -8.33759 | -108.26481 | 34000 ft | 470 kts | 237° |
| 2026-05-05 06:24 | -8.37501 | -108.31894 | 34000 ft | 470 kts | 237° |
| 2026-05-05 06:25 | -8.41249 | -108.37318 | 34000 ft | 470 kts | 237° |
| 2026-05-05 06:25 | -8.44976 | -108.42713 | 34000 ft | 470 kts | 237° |
| 2026-05-05 06:26 | -8.48735 | -108.48158 | 34000 ft | 470 kts | 237° |
| 2026-05-05 06:26 | -8.52466 | -108.53563 | 34000 ft | 470 kts | 237° |
| 2026-05-05 06:27 | -8.58084 | -108.61707 | 34000 ft | 470 kts | 237° |
| 2026-05-05 06:28 | -8.61835 | -108.67147 | 34000 ft | 470 kts | 237° |
| 2026-05-05 06:28 | -8.65557 | -108.72548 | 34000 ft | 470 kts | 237° |
| 2026-05-05 06:29 | -8.69297 | -108.77975 | 34000 ft | 470 kts | 237° |
| 2026-05-05 06:29 | -8.73047 | -108.83421 | 34000 ft | 470 kts | 237° |
| 2026-05-05 06:30 | -8.76782 | -108.88846 | 34000 ft | 470 kts | 237° |
| 2026-05-05 06:30 | -8.80505 | -108.94257 | 34000 ft | 470 kts | 237° |
| 2026-05-05 06:31 | -8.84237 | -108.99683 | 34000 ft | 470 kts | 237° |
| 2026-05-05 06:31 | -8.87978 | -109.05123 | 34000 ft | 470 kts | 237° |
| 2026-05-05 06:32 | -8.91719 | -109.10567 | 34000 ft | 470 kts | 237° |
| 2026-05-05 06:32 | -8.95450 | -109.15998 | 34000 ft | 470 kts | 237° |
| 2026-05-05 06:33 | -8.99188 | -109.21441 | 34000 ft | 470 kts | 237° |
| 2026-05-05 06:33 | -9.02906 | -109.26858 | 34000 ft | 470 kts | 237° |
| 2026-05-05 06:34 | -9.06648 | -109.32312 | 34000 ft | 470 kts | 237° |
| 2026-05-05 06:34 | -9.10367 | -109.37734 | 34000 ft | 470 kts | 237° |
| 2026-05-05 06:35 | -9.14100 | -109.43181 | 34000 ft | 470 kts | 237° |
| 2026-05-05 06:35 | -9.17822 | -109.48612 | 34000 ft | 470 kts | 237° |
| 2026-05-05 06:36 | -9.21544 | -109.54046 | 34000 ft | 470 kts | 237° |
| 2026-05-05 06:36 | -9.25272 | -109.59490 | 34000 ft | 470 kts | 237° |
| 2026-05-05 06:37 | -9.29006 | -109.64946 | 34000 ft | 470 kts | 237° |
| 2026-05-05 06:37 | -9.32726 | -109.70385 | 34000 ft | 470 kts | 237° |
| 2026-05-05 06:38 | -9.36450 | -109.75831 | 34000 ft | 470 kts | 237° |
| 2026-05-05 06:38 | -9.40159 | -109.81258 | 34000 ft | 470 kts | 237° |
| 2026-05-05 06:39 | -9.43898 | -109.86730 | 34000 ft | 470 kts | 237° |
| 2026-05-05 06:39 | -9.47603 | -109.92157 | 34000 ft | 470 kts | 237° |
| 2026-05-05 06:40 | -9.51327 | -109.97613 | 34000 ft | 470 kts | 237° |
| 2026-05-05 06:40 | -9.55051 | -110.03071 | 34000 ft | 470 kts | 237° |
| 2026-05-05 06:41 | -9.58144 | -110.07606 | 34000 ft | 470 kts | 237° |
| 2026-05-05 06:41 | -9.61867 | -110.13067 | 34000 ft | 470 kts | 237° |
| 2026-05-05 06:42 | -9.65589 | -110.18529 | 34000 ft | 470 kts | 237° |
| 2026-05-05 06:42 | -9.69306 | -110.23987 | 34000 ft | 470 kts | 237° |
| 2026-05-05 06:43 | -9.73019 | -110.29442 | 34000 ft | 470 kts | 237° |
| 2026-05-05 06:43 | -9.76722 | -110.34883 | 34000 ft | 470 kts | 237° |
| 2026-05-05 06:44 | -9.80437 | -110.40345 | 34000 ft | 470 kts | 237° |
| 2026-05-05 06:44 | -9.84152 | -110.45810 | 34000 ft | 470 kts | 237° |
| 2026-05-05 06:45 | -9.87850 | -110.51251 | 34000 ft | 470 kts | 237° |
| 2026-05-05 06:45 | -9.91565 | -110.56721 | 34000 ft | 470 kts | 237° |
| 2026-05-05 06:46 | -9.95267 | -110.62174 | 34000 ft | 470 kts | 237° |
| 2026-05-05 06:46 | -9.98988 | -110.67657 | 34000 ft | 470 kts | 237° |
| 2026-05-05 06:47 | -10.02683 | -110.73105 | 34000 ft | 470 kts | 237° |
| 2026-05-05 06:47 | -10.06400 | -110.78587 | 34000 ft | 470 kts | 237° |
| 2026-05-05 06:48 | -10.10110 | -110.84062 | 34000 ft | 470 kts | 237° |
| 2026-05-05 06:48 | -10.13800 | -110.89511 | 34000 ft | 470 kts | 237° |
| 2026-05-05 06:49 | -10.17509 | -110.94989 | 34000 ft | 470 kts | 237° |
| 2026-05-05 06:49 | -10.21217 | -111.00469 | 34000 ft | 470 kts | 237° |
| 2026-05-05 06:50 | -10.24923 | -111.05949 | 34000 ft | 470 kts | 237° |
| 2026-05-05 06:50 | -10.28624 | -111.11424 | 34000 ft | 470 kts | 237° |
| 2026-05-05 06:51 | -10.32321 | -111.16894 | 34000 ft | 470 kts | 237° |
| 2026-05-05 06:51 | -10.36025 | -111.22379 | 34000 ft | 470 kts | 237° |
| 2026-05-05 06:52 | -10.39708 | -111.27835 | 34000 ft | 470 kts | 237° |
| 2026-05-05 06:52 | -10.43420 | -111.33338 | 34000 ft | 470 kts | 237° |
| 2026-05-05 06:53 | -10.47103 | -111.38798 | 34000 ft | 470 kts | 237° |
| 2026-05-05 06:53 | -10.50796 | -111.44277 | 34000 ft | 470 kts | 237° |
| 2026-05-05 06:54 | -10.54499 | -111.49773 | 34000 ft | 470 kts | 237° |
| 2026-05-05 06:54 | -10.58180 | -111.55240 | 34000 ft | 470 kts | 237° |
| 2026-05-05 06:55 | -10.61877 | -111.60732 | 34000 ft | 470 kts | 237° |
| 2026-05-05 06:55 | -10.65565 | -111.66215 | 34000 ft | 470 kts | 237° |
| 2026-05-05 06:56 | -10.69261 | -111.71713 | 34000 ft | 470 kts | 237° |
| 2026-05-05 06:56 | -10.72961 | -111.77218 | 34000 ft | 470 kts | 237° |
| 2026-05-05 06:57 | -10.76635 | -111.82689 | 34000 ft | 470 kts | 237° |
| 2026-05-05 06:57 | -10.80327 | -111.88188 | 34000 ft | 470 kts | 237° |
| 2026-05-05 06:58 | -10.84019 | -111.93689 | 34000 ft | 470 kts | 237° |
| 2026-05-05 06:58 | -10.87706 | -111.99188 | 34000 ft | 470 kts | 237° |
| 2026-05-05 06:59 | -10.91390 | -112.04684 | 34000 ft | 470 kts | 237° |
| 2026-05-05 06:59 | -10.95071 | -112.10177 | 34000 ft | 470 kts | 237° |
| 2026-05-05 07:00 | -10.98749 | -112.15669 | 34000 ft | 470 kts | 237° |
| 2026-05-05 07:00 | -11.02440 | -112.21184 | 34000 ft | 470 kts | 237° |
| 2026-05-05 07:01 | -11.06117 | -112.26682 | 34000 ft | 470 kts | 237° |
| 2026-05-05 07:01 | -11.09787 | -112.32171 | 34000 ft | 470 kts | 237° |
| 2026-05-05 07:02 | -11.13469 | -112.37681 | 34000 ft | 470 kts | 237° |
| 2026-05-05 07:02 | -11.17136 | -112.43170 | 34000 ft | 470 kts | 237° |
| 2026-05-05 07:03 | -11.20829 | -112.48703 | 34000 ft | 470 kts | 237° |
| 2026-05-05 07:03 | -11.24508 | -112.54218 | 34000 ft | 470 kts | 237° |
| 2026-05-05 07:04 | -11.28175 | -112.59717 | 34000 ft | 470 kts | 237° |
| 2026-05-05 07:04 | -11.31838 | -112.65212 | 34000 ft | 470 kts | 237° |
| 2026-05-05 07:05 | -11.35519 | -112.70739 | 34000 ft | 470 kts | 237° |
| 2026-05-05 07:05 | -11.39181 | -112.76239 | 34000 ft | 470 kts | 237° |
| 2026-05-05 07:06 | -11.42850 | -112.81753 | 34000 ft | 470 kts | 237° |
| 2026-05-05 07:06 | -11.46523 | -112.87276 | 34000 ft | 470 kts | 237° |
| 2026-05-05 07:07 | -11.50190 | -112.92793 | 34000 ft | 470 kts | 237° |
| 2026-05-05 07:07 | -11.53854 | -112.98309 | 34000 ft | 470 kts | 237° |
| 2026-05-05 07:08 | -11.57538 | -113.03857 | 34000 ft | 470 kts | 237° |
| 2026-05-05 07:08 | -11.61200 | -113.09375 | 34000 ft | 470 kts | 237° |
| 2026-05-05 07:09 | -11.64842 | -113.14867 | 34000 ft | 470 kts | 237° |
| 2026-05-05 07:09 | -11.68506 | -113.20395 | 34000 ft | 470 kts | 237° |
| 2026-05-05 07:10 | -11.72163 | -113.25914 | 34000 ft | 470 kts | 237° |
| 2026-05-05 07:10 | -11.75835 | -113.31459 | 34000 ft | 470 kts | 237° |
| 2026-05-05 07:11 | -11.79488 | -113.36980 | 34000 ft | 470 kts | 237° |
| 2026-05-05 07:11 | -11.83157 | -113.42528 | 34000 ft | 470 kts | 237° |
| 2026-05-05 07:12 | -11.86817 | -113.48064 | 34000 ft | 470 kts | 237° |
| 2026-05-05 07:12 | -11.90454 | -113.53569 | 34000 ft | 470 kts | 237° |
| 2026-05-05 07:13 | -11.94113 | -113.59112 | 34000 ft | 470 kts | 238° |
| 2026-05-05 07:13 | -11.97766 | -113.64647 | 34000 ft | 470 kts | 238° |
| 2026-05-05 07:14 | -12.01431 | -113.70203 | 34000 ft | 470 kts | 238° |
| 2026-05-05 07:14 | -12.05078 | -113.75737 | 34000 ft | 470 kts | 238° |
| 2026-05-05 07:15 | -12.08732 | -113.81284 | 34000 ft | 470 kts | 238° |
| 2026-05-05 07:15 | -12.12367 | -113.86804 | 34000 ft | 470 kts | 238° |
| 2026-05-05 07:16 | -12.16027 | -113.92366 | 34000 ft | 470 kts | 238° |
| 2026-05-05 07:16 | -12.19676 | -113.97914 | 34000 ft | 470 kts | 238° |
| 2026-05-05 07:17 | -12.23322 | -114.03462 | 34000 ft | 470 kts | 238° |
| 2026-05-05 07:17 | -12.26966 | -114.09009 | 34000 ft | 470 kts | 238° |
| 2026-05-05 07:18 | -12.30606 | -114.14554 | 34000 ft | 470 kts | 238° |
| 2026-05-05 07:18 | -12.34252 | -114.20110 | 34000 ft | 470 kts | 238° |
| 2026-05-05 07:19 | -12.37879 | -114.25643 | 34000 ft | 470 kts | 238° |
| 2026-05-05 07:19 | -12.41515 | -114.31191 | 34000 ft | 470 kts | 238° |
| 2026-05-05 07:20 | -12.45163 | -114.36761 | 34000 ft | 470 kts | 238° |
| 2026-05-05 07:20 | -12.48797 | -114.42312 | 34000 ft | 470 kts | 238° |
| 2026-05-05 07:21 | -12.52432 | -114.47868 | 34000 ft | 470 kts | 238° |
| 2026-05-05 07:21 | -12.56065 | -114.53425 | 34000 ft | 470 kts | 238° |
| 2026-05-05 07:22 | -12.59702 | -114.58991 | 34000 ft | 470 kts | 238° |
| 2026-05-05 07:22 | -12.62738 | -114.63642 | 34000 ft | 470 kts | 238° |
| 2026-05-05 07:23 | -12.66373 | -114.69211 | 34000 ft | 470 kts | 238° |
| 2026-05-05 07:23 | -12.69996 | -114.74764 | 34000 ft | 470 kts | 238° |
| 2026-05-05 07:24 | -12.73631 | -114.80341 | 34000 ft | 470 kts | 238° |
| 2026-05-05 07:24 | -12.77267 | -114.85922 | 34000 ft | 470 kts | 238° |
| 2026-05-05 07:25 | -12.80890 | -114.91487 | 34000 ft | 470 kts | 238° |
| 2026-05-05 07:25 | -12.84519 | -114.97063 | 34000 ft | 470 kts | 238° |
| 2026-05-05 07:26 | -12.88134 | -115.02621 | 34000 ft | 470 kts | 238° |
| 2026-05-05 07:26 | -12.91765 | -115.08208 | 34000 ft | 470 kts | 238° |
| 2026-05-05 07:27 | -12.95380 | -115.13774 | 34000 ft | 470 kts | 238° |
| 2026-05-05 07:27 | -12.99017 | -115.19377 | 34000 ft | 470 kts | 238° |
| 2026-05-05 07:28 | -13.02623 | -115.24936 | 34000 ft | 470 kts | 238° |
| 2026-05-05 07:28 | -13.06250 | -115.30532 | 34000 ft | 470 kts | 238° |
| 2026-05-05 07:29 | -13.09868 | -115.36116 | 34000 ft | 470 kts | 238° |
| 2026-05-05 07:29 | -13.13486 | -115.41704 | 34000 ft | 470 kts | 238° |
| 2026-05-05 07:30 | -13.17109 | -115.47302 | 34000 ft | 470 kts | 238° |
| 2026-05-05 07:30 | -13.22532 | -115.55689 | 34000 ft | 470 kts | 238° |
| 2026-05-05 07:31 | -13.26149 | -115.61288 | 34000 ft | 470 kts | 238° |
| 2026-05-05 07:31 | -13.29739 | -115.66849 | 34000 ft | 470 kts | 238° |
| 2026-05-05 07:32 | -13.33349 | -115.72444 | 34000 ft | 470 kts | 238° |
| 2026-05-05 07:32 | -13.36979 | -115.78073 | 34000 ft | 470 kts | 238° |
| 2026-05-05 07:33 | -13.40582 | -115.83663 | 34000 ft | 470 kts | 238° |
| 2026-05-05 07:33 | -13.44184 | -115.89258 | 34000 ft | 470 kts | 238° |
| 2026-05-05 07:34 | -13.47776 | -115.94838 | 34000 ft | 470 kts | 238° |
| 2026-05-05 07:34 | -13.51395 | -116.00465 | 34000 ft | 470 kts | 238° |
| 2026-05-05 07:35 | -13.54995 | -116.06066 | 34000 ft | 470 kts | 238° |
| 2026-05-05 07:35 | -13.58586 | -116.11656 | 34000 ft | 470 kts | 238° |
| 2026-05-05 07:36 | -13.62192 | -116.17275 | 34000 ft | 470 kts | 238° |
| 2026-05-05 07:36 | -13.65792 | -116.22886 | 34000 ft | 470 kts | 238° |
| 2026-05-05 07:37 | -13.69386 | -116.28492 | 34000 ft | 470 kts | 238° |
| 2026-05-05 07:37 | -13.72987 | -116.34114 | 34000 ft | 470 kts | 238° |
| 2026-05-05 07:38 | -13.76573 | -116.39714 | 34000 ft | 470 kts | 238° |
| 2026-05-05 07:38 | -13.80175 | -116.45344 | 34000 ft | 470 kts | 238° |
| 2026-05-05 07:39 | -13.83758 | -116.50948 | 34000 ft | 470 kts | 238° |
| 2026-05-05 07:39 | -13.87354 | -116.56575 | 34000 ft | 470 kts | 238° |
| 2026-05-05 07:40 | -13.90956 | -116.62217 | 34000 ft | 470 kts | 238° |
| 2026-05-05 07:40 | -13.94530 | -116.67817 | 34000 ft | 470 kts | 238° |
| 2026-05-05 07:41 | -13.98114 | -116.73438 | 34000 ft | 470 kts | 238° |
| 2026-05-05 07:41 | -14.01696 | -116.79059 | 34000 ft | 470 kts | 238° |
| 2026-05-05 07:42 | -14.05274 | -116.84677 | 34000 ft | 470 kts | 238° |
| 2026-05-05 07:42 | -14.08866 | -116.90322 | 34000 ft | 470 kts | 238° |
| 2026-05-05 07:43 | -14.12454 | -116.95964 | 34000 ft | 470 kts | 238° |
| 2026-05-05 07:43 | -14.16034 | -117.01597 | 34000 ft | 470 kts | 238° |
| 2026-05-05 07:44 | -14.19614 | -117.07234 | 34000 ft | 470 kts | 238° |
| 2026-05-05 07:44 | -14.23172 | -117.12840 | 34000 ft | 470 kts | 238° |
| 2026-05-05 07:45 | -14.26753 | -117.18487 | 34000 ft | 470 kts | 238° |
| 2026-05-05 07:45 | -14.30342 | -117.24149 | 34000 ft | 470 kts | 238° |
| 2026-05-05 07:46 | -14.33921 | -117.29800 | 34000 ft | 470 kts | 238° |
| 2026-05-05 07:46 | -14.37485 | -117.35431 | 34000 ft | 470 kts | 238° |
| 2026-05-05 07:47 | -14.41063 | -117.41088 | 34000 ft | 470 kts | 238° |
| 2026-05-05 07:47 | -14.44629 | -117.46731 | 34000 ft | 470 kts | 238° |
| 2026-05-05 07:48 | -14.48176 | -117.52347 | 34000 ft | 470 kts | 238° |
| 2026-05-05 07:48 | -14.51760 | -117.58024 | 34000 ft | 470 kts | 238° |
| 2026-05-05 07:49 | -14.55330 | -117.63685 | 34000 ft | 470 kts | 238° |
| 2026-05-05 07:49 | -14.58894 | -117.69339 | 34000 ft | 470 kts | 238° |
| 2026-05-05 07:50 | -14.62439 | -117.74969 | 34000 ft | 470 kts | 238° |
| 2026-05-05 07:50 | -14.65996 | -117.80620 | 34000 ft | 470 kts | 238° |
| 2026-05-05 07:51 | -14.69564 | -117.86293 | 34000 ft | 470 kts | 238° |
| 2026-05-05 07:51 | -14.73112 | -117.91938 | 34000 ft | 470 kts | 238° |
| 2026-05-05 07:52 | -14.76665 | -117.97596 | 34000 ft | 470 kts | 238° |
| 2026-05-05 07:52 | -14.80225 | -118.03269 | 34000 ft | 470 kts | 238° |
| 2026-05-05 07:53 | -14.83777 | -118.08933 | 34000 ft | 470 kts | 238° |
| 2026-05-05 07:53 | -14.87347 | -118.14629 | 34000 ft | 470 kts | 238° |
| 2026-05-05 07:54 | -14.90892 | -118.20291 | 34000 ft | 470 kts | 238° |
| 2026-05-05 07:54 | -14.94438 | -118.25957 | 34000 ft | 470 kts | 238° |
| 2026-05-05 07:55 | -14.97990 | -118.31637 | 34000 ft | 470 kts | 239° |
| 2026-05-05 07:55 | -15.01533 | -118.37306 | 34000 ft | 470 kts | 239° |
| 2026-05-05 07:56 | -15.05090 | -118.43003 | 34000 ft | 470 kts | 239° |
| 2026-05-05 07:56 | -15.08615 | -118.48653 | 34000 ft | 470 kts | 239° |
| 2026-05-05 07:57 | -15.12170 | -118.54354 | 34000 ft | 470 kts | 239° |
| 2026-05-05 07:57 | -15.15709 | -118.60035 | 34000 ft | 470 kts | 239° |
| 2026-05-05 07:58 | -15.19242 | -118.65709 | 34000 ft | 470 kts | 239° |
| 2026-05-05 07:58 | -15.22784 | -118.71403 | 34000 ft | 470 kts | 239° |
| 2026-05-05 07:59 | -15.25742 | -118.76161 | 34000 ft | 470 kts | 239° |
| 2026-05-05 07:59 | -15.29263 | -118.81828 | 34000 ft | 470 kts | 239° |
| 2026-05-05 08:00 | -15.32813 | -118.87547 | 34000 ft | 470 kts | 239° |
| 2026-05-05 08:00 | -15.36342 | -118.93235 | 34000 ft | 470 kts | 239° |
| 2026-05-05 08:01 | -15.39865 | -118.98918 | 34000 ft | 470 kts | 239° |
| 2026-05-05 08:01 | -15.43395 | -119.04617 | 34000 ft | 470 kts | 239° |
| 2026-05-05 08:02 | -15.46922 | -119.10315 | 34000 ft | 470 kts | 239° |
| 2026-05-05 08:02 | -15.50450 | -119.16020 | 34000 ft | 470 kts | 239° |
| 2026-05-05 08:03 | -15.53973 | -119.21720 | 34000 ft | 470 kts | 239° |
| 2026-05-05 08:03 | -15.57504 | -119.27437 | 34000 ft | 470 kts | 239° |
| 2026-05-05 08:04 | -15.61023 | -119.33140 | 34000 ft | 470 kts | 239° |
| 2026-05-05 08:04 | -15.64533 | -119.38832 | 34000 ft | 470 kts | 239° |
| 2026-05-05 08:05 | -15.68055 | -119.44549 | 34000 ft | 470 kts | 239° |
| 2026-05-05 08:05 | -15.71576 | -119.50268 | 34000 ft | 470 kts | 239° |
| 2026-05-05 08:06 | -15.75097 | -119.55991 | 34000 ft | 470 kts | 239° |
| 2026-05-05 08:06 | -15.78610 | -119.61706 | 34000 ft | 470 kts | 239° |
| 2026-05-05 08:07 | -15.82122 | -119.67423 | 34000 ft | 470 kts | 239° |
| 2026-05-05 08:07 | -15.85612 | -119.73110 | 34000 ft | 470 kts | 239° |
| 2026-05-05 08:08 | -15.89123 | -119.78835 | 34000 ft | 470 kts | 239° |
| 2026-05-05 08:08 | -15.92627 | -119.84552 | 34000 ft | 470 kts | 239° |
| 2026-05-05 08:09 | -15.96130 | -119.90272 | 34000 ft | 470 kts | 239° |
| 2026-05-05 08:09 | -15.99642 | -119.96011 | 34000 ft | 470 kts | 239° |
| 2026-05-05 08:10 | -16.03146 | -120.01743 | 34000 ft | 470 kts | 239° |
| 2026-05-05 08:10 | -16.06649 | -120.07476 | 34000 ft | 470 kts | 239° |
| 2026-05-05 08:11 | -16.10141 | -120.13197 | 34000 ft | 470 kts | 239° |
| 2026-05-05 08:11 | -16.13641 | -120.18935 | 34000 ft | 470 kts | 239° |
| 2026-05-05 08:12 | -16.17150 | -120.24693 | 34000 ft | 470 kts | 239° |
| 2026-05-05 08:12 | -16.20626 | -120.30402 | 34000 ft | 470 kts | 239° |
| 2026-05-05 08:13 | -16.24140 | -120.36176 | 34000 ft | 470 kts | 239° |
| 2026-05-05 08:13 | -16.27614 | -120.41889 | 34000 ft | 470 kts | 239° |
| 2026-05-05 08:14 | -16.31101 | -120.47630 | 34000 ft | 470 kts | 239° |
| 2026-05-05 08:14 | -16.34598 | -120.53390 | 34000 ft | 470 kts | 239° |
| 2026-05-05 08:15 | -16.38100 | -120.59163 | 34000 ft | 470 kts | 239° |
| 2026-05-05 08:15 | -16.41565 | -120.64881 | 34000 ft | 470 kts | 239° |
| 2026-05-05 08:16 | -16.45059 | -120.70650 | 34000 ft | 470 kts | 239° |
| 2026-05-05 08:16 | -16.48555 | -120.76429 | 34000 ft | 470 kts | 239° |
| 2026-05-05 08:17 | -16.52026 | -120.82169 | 34000 ft | 470 kts | 239° |
| 2026-05-05 08:17 | -16.55502 | -120.87923 | 34000 ft | 470 kts | 239° |
| 2026-05-05 08:18 | -16.58982 | -120.93688 | 34000 ft | 470 kts | 239° |
| 2026-05-05 08:18 | -16.62461 | -120.99456 | 34000 ft | 470 kts | 239° |
| 2026-05-05 08:19 | -16.65940 | -121.05230 | 34000 ft | 469 kts | 239° |
| 2026-05-05 08:19 | -16.69421 | -121.11011 | 34000 ft | 469 kts | 239° |
| 2026-05-05 08:20 | -16.72892 | -121.16780 | 34000 ft | 469 kts | 239° |
| 2026-05-05 08:20 | -16.76348 | -121.22529 | 34000 ft | 469 kts | 239° |
| 2026-05-05 08:21 | -16.79828 | -121.28324 | 34000 ft | 469 kts | 239° |
| 2026-05-05 08:21 | -16.83294 | -121.34099 | 34000 ft | 469 kts | 239° |
| 2026-05-05 08:22 | -16.86761 | -121.39881 | 34000 ft | 469 kts | 239° |
| 2026-05-05 08:22 | -16.90229 | -121.45668 | 34000 ft | 469 kts | 239° |
| 2026-05-05 08:23 | -16.93689 | -121.51449 | 34000 ft | 469 kts | 239° |
| 2026-05-05 08:23 | -16.97151 | -121.57237 | 34000 ft | 469 kts | 239° |
| 2026-05-05 08:24 | -17.00613 | -121.63029 | 34000 ft | 469 kts | 239° |
| 2026-05-05 08:24 | -17.04053 | -121.68790 | 34000 ft | 469 kts | 239° |
| 2026-05-05 08:25 | -17.07506 | -121.74578 | 34000 ft | 469 kts | 239° |
| 2026-05-05 08:25 | -17.10961 | -121.80373 | 34000 ft | 469 kts | 239° |
| 2026-05-05 08:26 | -17.14418 | -121.86178 | 34000 ft | 469 kts | 239° |
| 2026-05-05 08:26 | -17.17858 | -121.91958 | 34000 ft | 469 kts | 239° |
| 2026-05-05 08:27 | -17.21312 | -121.97766 | 34000 ft | 469 kts | 239° |
| 2026-05-05 08:27 | -17.24750 | -122.03554 | 34000 ft | 469 kts | 239° |
| 2026-05-05 08:28 | -17.28192 | -122.09352 | 34000 ft | 469 kts | 239° |
| 2026-05-05 08:28 | -17.31644 | -122.15173 | 34000 ft | 469 kts | 239° |
| 2026-05-05 08:29 | -17.35075 | -122.20962 | 34000 ft | 469 kts | 239° |
| 2026-05-05 08:30 | -17.40243 | -122.29694 | 34000 ft | 469 kts | 240° |
| 2026-05-05 08:30 | -17.43659 | -122.35471 | 34000 ft | 469 kts | 240° |
| 2026-05-05 08:31 | -17.47092 | -122.41282 | 34000 ft | 469 kts | 240° |
| 2026-05-05 08:31 | -17.50544 | -122.47129 | 34000 ft | 469 kts | 240° |
| 2026-05-05 08:32 | -17.53965 | -122.52931 | 34000 ft | 469 kts | 240° |
| 2026-05-05 08:32 | -17.57397 | -122.58755 | 34000 ft | 469 kts | 240° |
| 2026-05-05 08:33 | -17.60828 | -122.64582 | 34000 ft | 469 kts | 240° |
| 2026-05-05 08:33 | -17.64242 | -122.70387 | 34000 ft | 469 kts | 240° |
| 2026-05-05 08:34 | -17.67667 | -122.76215 | 34000 ft | 469 kts | 240° |
| 2026-05-05 08:34 | -17.71089 | -122.82042 | 34000 ft | 469 kts | 240° |
| 2026-05-05 08:35 | -17.74496 | -122.87850 | 34000 ft | 469 kts | 240° |
| 2026-05-05 08:35 | -17.77924 | -122.93698 | 34000 ft | 469 kts | 240° |
| 2026-05-05 08:36 | -17.81354 | -122.99556 | 34000 ft | 469 kts | 240° |
| 2026-05-05 08:36 | -17.84751 | -123.05362 | 34000 ft | 469 kts | 240° |
| 2026-05-05 08:37 | -17.88168 | -123.11208 | 34000 ft | 469 kts | 240° |
| 2026-05-05 08:37 | -17.91582 | -123.17052 | 34000 ft | 469 kts | 240° |
| 2026-05-05 08:38 | -17.94996 | -123.22903 | 34000 ft | 469 kts | 240° |
| 2026-05-05 08:38 | -17.98403 | -123.28746 | 34000 ft | 469 kts | 240° |
| 2026-05-05 08:39 | -18.01816 | -123.34607 | 34000 ft | 469 kts | 240° |
| 2026-05-05 08:39 | -18.05213 | -123.40443 | 34000 ft | 469 kts | 240° |
| 2026-05-05 08:40 | -18.08617 | -123.46299 | 34000 ft | 469 kts | 240° |
| 2026-05-05 08:40 | -18.11467 | -123.51204 | 34000 ft | 469 kts | 240° |
| 2026-05-05 08:41 | -18.14854 | -123.57039 | 34000 ft | 469 kts | 240° |
| 2026-05-05 08:41 | -18.18261 | -123.62913 | 34000 ft | 469 kts | 240° |
| 2026-05-05 08:42 | -18.21659 | -123.68779 | 34000 ft | 469 kts | 240° |
| 2026-05-05 08:42 | -18.25055 | -123.74646 | 34000 ft | 469 kts | 240° |
| 2026-05-05 08:43 | -18.28448 | -123.80512 | 34000 ft | 469 kts | 240° |
| 2026-05-05 08:43 | -18.31844 | -123.86389 | 34000 ft | 469 kts | 240° |
| 2026-05-05 08:44 | -18.35241 | -123.92274 | 34000 ft | 469 kts | 240° |
| 2026-05-05 08:44 | -18.38613 | -123.98120 | 34000 ft | 469 kts | 240° |
| 2026-05-05 08:45 | -18.41995 | -124.03990 | 34000 ft | 469 kts | 240° |
| 2026-05-05 08:45 | -18.45390 | -124.09888 | 34000 ft | 469 kts | 240° |
| 2026-05-05 08:46 | -18.48770 | -124.15764 | 34000 ft | 469 kts | 240° |
| 2026-05-05 08:46 | -18.52150 | -124.21647 | 34000 ft | 469 kts | 240° |
| 2026-05-05 08:47 | -18.55521 | -124.27518 | 34000 ft | 469 kts | 240° |
| 2026-05-05 08:47 | -18.58914 | -124.33435 | 34000 ft | 469 kts | 240° |
| 2026-05-05 08:48 | -18.62292 | -124.39330 | 34000 ft | 469 kts | 240° |
| 2026-05-05 08:48 | -18.65646 | -124.45188 | 34000 ft | 469 kts | 240° |
| 2026-05-05 08:49 | -18.69033 | -124.51111 | 34000 ft | 469 kts | 240° |
| 2026-05-05 08:49 | -18.72395 | -124.56995 | 34000 ft | 469 kts | 240° |
| 2026-05-05 08:50 | -18.75763 | -124.62896 | 34000 ft | 469 kts | 240° |
| 2026-05-05 08:50 | -18.79121 | -124.68783 | 34000 ft | 469 kts | 240° |
| 2026-05-05 08:51 | -18.82489 | -124.74695 | 34000 ft | 469 kts | 240° |
| 2026-05-05 08:51 | -18.85843 | -124.80587 | 34000 ft | 469 kts | 240° |
| 2026-05-05 08:52 | -18.89203 | -124.86495 | 34000 ft | 469 kts | 240° |
| 2026-05-05 08:52 | -18.92569 | -124.92420 | 34000 ft | 469 kts | 240° |
| 2026-05-05 08:53 | -18.95925 | -124.98334 | 34000 ft | 469 kts | 240° |
| 2026-05-05 08:53 | -18.99274 | -125.04238 | 34000 ft | 469 kts | 240° |
| 2026-05-05 08:54 | -19.02609 | -125.10126 | 34000 ft | 469 kts | 240° |
| 2026-05-05 08:54 | -19.05972 | -125.16068 | 34000 ft | 469 kts | 240° |
| 2026-05-05 08:55 | -19.09314 | -125.21979 | 34000 ft | 469 kts | 240° |
| 2026-05-05 08:55 | -19.12658 | -125.27899 | 34000 ft | 469 kts | 240° |
| 2026-05-05 08:56 | -19.16009 | -125.33838 | 34000 ft | 469 kts | 240° |
| 2026-05-05 08:56 | -19.19343 | -125.39752 | 34000 ft | 469 kts | 240° |
| 2026-05-05 08:57 | -19.22686 | -125.45687 | 34000 ft | 469 kts | 240° |
| 2026-05-05 08:57 | -19.26035 | -125.51640 | 34000 ft | 469 kts | 240° |
| 2026-05-05 08:58 | -19.29367 | -125.57567 | 34000 ft | 469 kts | 240° |
| 2026-05-05 08:58 | -19.32697 | -125.63497 | 34000 ft | 469 kts | 240° |
| 2026-05-05 08:59 | -19.36034 | -125.69446 | 34000 ft | 469 kts | 240° |
| 2026-05-05 08:59 | -19.39366 | -125.75392 | 34000 ft | 469 kts | 241° |
| 2026-05-05 09:00 | -19.42684 | -125.81318 | 34000 ft | 469 kts | 241° |
| 2026-05-05 09:00 | -19.46007 | -125.87258 | 34000 ft | 469 kts | 241° |
| 2026-05-05 09:01 | -19.49350 | -125.93241 | 34000 ft | 469 kts | 241° |
| 2026-05-05 09:01 | -19.52672 | -125.99192 | 34000 ft | 469 kts | 241° |
| 2026-05-05 09:02 | -19.55992 | -126.05146 | 34000 ft | 469 kts | 241° |
| 2026-05-05 09:02 | -19.59300 | -126.11084 | 34000 ft | 469 kts | 241° |
| 2026-05-05 09:03 | -19.62633 | -126.17072 | 34000 ft | 469 kts | 241° |
| 2026-05-05 09:03 | -19.65928 | -126.22999 | 34000 ft | 469 kts | 241° |
| 2026-05-05 09:04 | -19.69247 | -126.28975 | 34000 ft | 469 kts | 241° |
| 2026-05-05 09:04 | -19.72555 | -126.34937 | 34000 ft | 469 kts | 241° |
| 2026-05-05 09:05 | -19.75857 | -126.40893 | 34000 ft | 469 kts | 241° |
| 2026-05-05 09:05 | -19.79163 | -126.46863 | 34000 ft | 469 kts | 241° |
| 2026-05-05 09:06 | -19.82478 | -126.52856 | 34000 ft | 469 kts | 241° |
| 2026-05-05 09:06 | -19.85781 | -126.58833 | 34000 ft | 469 kts | 241° |
| 2026-05-05 09:07 | -19.89066 | -126.64784 | 34000 ft | 469 kts | 241° |
| 2026-05-05 09:07 | -19.92376 | -126.70785 | 34000 ft | 469 kts | 241° |
| 2026-05-05 09:08 | -19.95675 | -126.76773 | 34000 ft | 469 kts | 241° |
| 2026-05-05 09:08 | -19.98960 | -126.82742 | 34000 ft | 469 kts | 241° |
| 2026-05-05 09:09 | -20.02257 | -126.88738 | 34000 ft | 469 kts | 241° |
| 2026-05-05 09:09 | -20.05538 | -126.94712 | 34000 ft | 469 kts | 241° |
| 2026-05-05 09:10 | -20.08826 | -127.00705 | 34000 ft | 469 kts | 241° |
| 2026-05-05 09:10 | -20.12106 | -127.06690 | 34000 ft | 469 kts | 241° |
| 2026-05-05 09:11 | -20.15409 | -127.12721 | 34000 ft | 469 kts | 241° |
| 2026-05-05 09:11 | -20.18689 | -127.18718 | 34000 ft | 469 kts | 241° |
| 2026-05-05 09:12 | -20.21978 | -127.24738 | 34000 ft | 469 kts | 241° |
| 2026-05-05 09:12 | -20.25251 | -127.30734 | 34000 ft | 469 kts | 241° |
| 2026-05-05 09:13 | -20.28516 | -127.36723 | 34000 ft | 469 kts | 241° |
| 2026-05-05 09:13 | -20.31786 | -127.42726 | 34000 ft | 469 kts | 241° |
| 2026-05-05 09:14 | -20.35054 | -127.48732 | 34000 ft | 469 kts | 241° |
| 2026-05-05 09:14 | -20.38335 | -127.54768 | 34000 ft | 469 kts | 241° |
| 2026-05-05 09:15 | -20.41595 | -127.60773 | 34000 ft | 469 kts | 241° |
| 2026-05-05 09:15 | -20.44864 | -127.66799 | 34000 ft | 469 kts | 241° |
| 2026-05-05 09:16 | -20.48122 | -127.72813 | 34000 ft | 469 kts | 241° |
| 2026-05-05 09:16 | -20.51394 | -127.78858 | 34000 ft | 469 kts | 241° |
| 2026-05-05 09:17 | -20.54649 | -127.84879 | 34000 ft | 469 kts | 241° |
| 2026-05-05 09:17 | -20.57900 | -127.90899 | 34000 ft | 469 kts | 242° |
| 2026-05-05 09:18 | -20.61157 | -127.96934 | 34000 ft | 469 kts | 242° |
| 2026-05-05 09:18 | -20.64406 | -128.02963 | 34000 ft | 469 kts | 242° |
| 2026-05-05 09:19 | -20.67662 | -128.09011 | 34000 ft | 469 kts | 242° |
| 2026-05-05 09:19 | -20.70907 | -128.15046 | 34000 ft | 469 kts | 242° |
| 2026-05-05 09:20 | -20.73606 | -128.20069 | 34000 ft | 469 kts | 242° |
| 2026-05-05 09:20 | -20.76870 | -128.26151 | 34000 ft | 469 kts | 242° |
| 2026-05-05 09:21 | -20.80099 | -128.32174 | 34000 ft | 469 kts | 242° |
| 2026-05-05 09:21 | -20.83342 | -128.38230 | 34000 ft | 469 kts | 242° |
| 2026-05-05 09:22 | -20.86584 | -128.44288 | 34000 ft | 469 kts | 242° |
| 2026-05-05 09:22 | -20.89803 | -128.50312 | 34000 ft | 469 kts | 242° |
| 2026-05-05 09:23 | -20.93039 | -128.56374 | 34000 ft | 469 kts | 242° |
| 2026-05-05 09:23 | -20.96279 | -128.62451 | 34000 ft | 469 kts | 242° |
| 2026-05-05 09:24 | -20.99502 | -128.68502 | 34000 ft | 469 kts | 242° |
| 2026-05-05 09:24 | -21.02722 | -128.74554 | 34000 ft | 469 kts | 242° |
| 2026-05-05 09:25 | -21.05954 | -128.80634 | 34000 ft | 469 kts | 242° |
| 2026-05-05 09:25 | -21.09191 | -128.86731 | 34000 ft | 469 kts | 242° |
| 2026-05-05 09:26 | -21.12396 | -128.92776 | 34000 ft | 469 kts | 242° |
| 2026-05-05 09:26 | -21.15634 | -128.98889 | 34000 ft | 469 kts | 242° |
| 2026-05-05 09:27 | -21.18847 | -129.04960 | 34000 ft | 469 kts | 242° |
| 2026-05-05 09:27 | -21.22055 | -129.11031 | 34000 ft | 469 kts | 242° |
| 2026-05-05 09:28 | -21.25272 | -129.17123 | 34000 ft | 469 kts | 242° |
| 2026-05-05 09:28 | -21.28475 | -129.23198 | 34000 ft | 469 kts | 242° |
| 2026-05-05 09:29 | -21.31681 | -129.29284 | 34000 ft | 469 kts | 242° |
| 2026-05-05 09:29 | -21.34885 | -129.35373 | 34000 ft | 469 kts | 242° |
| 2026-05-05 09:30 | -21.38095 | -129.41480 | 34000 ft | 469 kts | 242° |
| 2026-05-05 09:30 | -21.41288 | -129.47562 | 34000 ft | 469 kts | 242° |
| 2026-05-05 09:31 | -21.44500 | -129.53687 | 34000 ft | 469 kts | 242° |
| 2026-05-05 09:31 | -21.47682 | -129.59761 | 34000 ft | 469 kts | 242° |
| 2026-05-05 09:32 | -21.50891 | -129.65895 | 34000 ft | 469 kts | 242° |
| 2026-05-05 09:32 | -21.54062 | -129.71963 | 34000 ft | 469 kts | 242° |
| 2026-05-05 09:33 | -21.57265 | -129.78098 | 34000 ft | 469 kts | 242° |
| 2026-05-05 09:33 | -21.60445 | -129.84197 | 34000 ft | 469 kts | 242° |
| 2026-05-05 09:34 | -21.63630 | -129.90311 | 34000 ft | 469 kts | 242° |
| 2026-05-05 09:34 | -21.66819 | -129.96440 | 34000 ft | 469 kts | 242° |
| 2026-05-05 09:35 | -21.70001 | -130.02563 | 34000 ft | 469 kts | 242° |
| 2026-05-05 09:35 | -21.74753 | -130.11721 | 34000 ft | 469 kts | 242° |
| 2026-05-05 09:36 | -21.77946 | -130.17882 | 34000 ft | 469 kts | 242° |
| 2026-05-05 09:36 | -21.81116 | -130.24009 | 34000 ft | 469 kts | 242° |
| 2026-05-05 09:37 | -21.84274 | -130.30116 | 34000 ft | 469 kts | 242° |
| 2026-05-05 09:37 | -21.87451 | -130.36268 | 34000 ft | 469 kts | 242° |
| 2026-05-05 09:38 | -21.90604 | -130.42382 | 34000 ft | 469 kts | 242° |
| 2026-05-05 09:38 | -21.93776 | -130.48540 | 34000 ft | 469 kts | 242° |
| 2026-05-05 09:39 | -21.96926 | -130.54661 | 34000 ft | 469 kts | 242° |
| 2026-05-05 09:39 | -22.00091 | -130.60819 | 34000 ft | 469 kts | 242° |
| 2026-05-05 09:40 | -22.03248 | -130.66968 | 34000 ft | 469 kts | 242° |
| 2026-05-05 09:40 | -22.06400 | -130.73115 | 34000 ft | 469 kts | 242° |
| 2026-05-05 09:41 | -22.09554 | -130.79273 | 34000 ft | 469 kts | 242° |
| 2026-05-05 09:41 | -22.12697 | -130.85417 | 34000 ft | 469 kts | 242° |
| 2026-05-05 09:42 | -22.15842 | -130.91573 | 34000 ft | 469 kts | 242° |
| 2026-05-05 09:42 | -22.18972 | -130.97706 | 34000 ft | 469 kts | 243° |
| 2026-05-05 09:43 | -22.22115 | -131.03871 | 34000 ft | 469 kts | 243° |
| 2026-05-05 09:43 | -22.25273 | -131.10074 | 34000 ft | 469 kts | 243° |
| 2026-05-05 09:44 | -22.28395 | -131.16213 | 34000 ft | 469 kts | 243° |
| 2026-05-05 09:44 | -22.31522 | -131.22368 | 34000 ft | 469 kts | 243° |
| 2026-05-05 09:45 | -22.34661 | -131.28557 | 34000 ft | 469 kts | 243° |
| 2026-05-05 09:45 | -22.37788 | -131.34728 | 34000 ft | 469 kts | 243° |
| 2026-05-05 09:46 | -22.40926 | -131.40928 | 34000 ft | 469 kts | 243° |
| 2026-05-05 09:46 | -22.44056 | -131.47119 | 34000 ft | 469 kts | 243° |
| 2026-05-05 09:47 | -22.47166 | -131.53278 | 34000 ft | 469 kts | 243° |
| 2026-05-05 09:47 | -22.50294 | -131.59481 | 34000 ft | 469 kts | 243° |
| 2026-05-05 09:48 | -22.53414 | -131.65676 | 34000 ft | 469 kts | 243° |
| 2026-05-05 09:48 | -22.56533 | -131.71875 | 34000 ft | 469 kts | 243° |
| 2026-05-05 09:49 | -22.59648 | -131.78074 | 34000 ft | 469 kts | 243° |
| 2026-05-05 09:49 | -22.62752 | -131.84260 | 34000 ft | 469 kts | 243° |
| 2026-05-05 09:50 | -22.65856 | -131.90452 | 34000 ft | 469 kts | 243° |
| 2026-05-05 09:50 | -22.68961 | -131.96654 | 34000 ft | 469 kts | 243° |
| 2026-05-05 09:51 | -22.72072 | -132.02875 | 34000 ft | 469 kts | 243° |
| 2026-05-05 09:51 | -22.75160 | -132.09060 | 34000 ft | 469 kts | 243° |
| 2026-05-05 09:52 | -22.78269 | -132.15292 | 34000 ft | 469 kts | 243° |
| 2026-05-05 09:52 | -22.81356 | -132.21489 | 34000 ft | 469 kts | 243° |
| 2026-05-05 09:53 | -22.84454 | -132.27715 | 34000 ft | 469 kts | 243° |
| 2026-05-05 09:53 | -22.87540 | -132.33925 | 34000 ft | 469 kts | 243° |
| 2026-05-05 09:54 | -22.90640 | -132.40170 | 34000 ft | 469 kts | 243° |
| 2026-05-05 09:54 | -22.93711 | -132.46367 | 34000 ft | 469 kts | 243° |
| 2026-05-05 09:55 | -22.96811 | -132.52628 | 34000 ft | 469 kts | 243° |
| 2026-05-05 09:55 | -22.99875 | -132.58824 | 34000 ft | 469 kts | 243° |
| 2026-05-05 09:56 | -23.02971 | -132.65091 | 34000 ft | 469 kts | 243° |
| 2026-05-05 09:56 | -23.06030 | -132.71295 | 34000 ft | 469 kts | 243° |
| 2026-05-05 09:57 | -23.09099 | -132.77523 | 34000 ft | 469 kts | 243° |
| 2026-05-05 09:57 | -23.12189 | -132.83804 | 34000 ft | 469 kts | 243° |
| 2026-05-05 09:58 | -23.15247 | -132.90028 | 34000 ft | 468 kts | 243° |
| 2026-05-05 09:58 | -23.18306 | -132.96260 | 34000 ft | 468 kts | 243° |
| 2026-05-05 09:59 | -23.21374 | -133.02519 | 34000 ft | 468 kts | 243° |
| 2026-05-05 09:59 | -23.24430 | -133.08761 | 34000 ft | 468 kts | 243° |
| 2026-05-05 10:00 | -23.27498 | -133.15037 | 34000 ft | 468 kts | 243° |
| 2026-05-05 10:00 | -23.30031 | -133.20223 | 34000 ft | 468 kts | 243° |
| 2026-05-05 10:01 | -23.33089 | -133.26492 | 34000 ft | 468 kts | 243° |
| 2026-05-05 10:01 | -23.36145 | -133.32765 | 34000 ft | 468 kts | 243° |
| 2026-05-05 10:02 | -23.39201 | -133.39046 | 34000 ft | 468 kts | 243° |
| 2026-05-05 10:02 | -23.42237 | -133.45294 | 34000 ft | 468 kts | 243° |
| 2026-05-05 10:03 | -23.45293 | -133.51592 | 34000 ft | 468 kts | 243° |
| 2026-05-05 10:03 | -23.48323 | -133.57842 | 34000 ft | 468 kts | 243° |
| 2026-05-05 10:04 | -23.51360 | -133.64116 | 34000 ft | 468 kts | 243° |
| 2026-05-05 10:04 | -23.54395 | -133.70395 | 34000 ft | 468 kts | 243° |
| 2026-05-05 10:05 | -23.57435 | -133.76691 | 34000 ft | 468 kts | 243° |
| 2026-05-05 10:05 | -23.60476 | -133.82999 | 34000 ft | 468 kts | 244° |
| 2026-05-05 10:06 | -23.63486 | -133.89249 | 34000 ft | 468 kts | 244° |
| 2026-05-05 10:06 | -23.66515 | -133.95547 | 34000 ft | 468 kts | 244° |
| 2026-05-05 10:07 | -23.69536 | -134.01837 | 34000 ft | 468 kts | 244° |
| 2026-05-05 10:07 | -23.72575 | -134.08173 | 34000 ft | 468 kts | 244° |
| 2026-05-05 10:08 | -23.75587 | -134.14459 | 34000 ft | 468 kts | 244° |
| 2026-05-05 10:08 | -23.78602 | -134.20761 | 34000 ft | 468 kts | 244° |
| 2026-05-05 10:09 | -23.81614 | -134.27067 | 34000 ft | 468 kts | 244° |
| 2026-05-05 10:09 | -23.84617 | -134.33359 | 34000 ft | 468 kts | 244° |
| 2026-05-05 10:10 | -23.87631 | -134.39685 | 34000 ft | 468 kts | 244° |
| 2026-05-05 10:10 | -23.90634 | -134.45995 | 34000 ft | 468 kts | 244° |
| 2026-05-05 10:11 | -23.93635 | -134.52308 | 34000 ft | 468 kts | 244° |
| 2026-05-05 10:11 | -23.96648 | -134.58657 | 34000 ft | 468 kts | 244° |
| 2026-05-05 10:12 | -23.99644 | -134.64977 | 34000 ft | 468 kts | 244° |
| 2026-05-05 10:12 | -24.02636 | -134.71296 | 34000 ft | 468 kts | 244° |
| 2026-05-05 10:13 | -24.05614 | -134.77597 | 34000 ft | 468 kts | 244° |
| 2026-05-05 10:13 | -24.08598 | -134.83917 | 34000 ft | 468 kts | 244° |
| 2026-05-05 10:14 | -24.11587 | -134.90256 | 34000 ft | 468 kts | 244° |
| 2026-05-05 10:14 | -24.14581 | -134.96615 | 34000 ft | 468 kts | 244° |
| 2026-05-05 10:15 | -24.17566 | -135.02962 | 34000 ft | 468 kts | 244° |
| 2026-05-05 10:15 | -24.20533 | -135.09282 | 34000 ft | 468 kts | 244° |
| 2026-05-05 10:16 | -24.23508 | -135.15624 | 34000 ft | 468 kts | 244° |
| 2026-05-05 10:16 | -24.26478 | -135.21966 | 34000 ft | 468 kts | 244° |
| 2026-05-05 10:17 | -24.29451 | -135.28323 | 34000 ft | 468 kts | 244° |
| 2026-05-05 10:17 | -24.32429 | -135.34698 | 34000 ft | 468 kts | 244° |
| 2026-05-05 10:18 | -24.35397 | -135.41062 | 34000 ft | 468 kts | 244° |
| 2026-05-05 10:18 | -24.38345 | -135.47392 | 34000 ft | 468 kts | 244° |
| 2026-05-05 10:19 | -24.41318 | -135.53783 | 34000 ft | 468 kts | 244° |
| 2026-05-05 10:19 | -24.44267 | -135.60131 | 34000 ft | 468 kts | 244° |
| 2026-05-05 10:20 | -24.47234 | -135.66528 | 34000 ft | 468 kts | 244° |
| 2026-05-05 10:20 | -24.50178 | -135.72883 | 34000 ft | 468 kts | 244° |
| 2026-05-05 10:21 | -24.53128 | -135.79259 | 34000 ft | 468 kts | 244° |
| 2026-05-05 10:21 | -24.56085 | -135.85660 | 34000 ft | 468 kts | 244° |
| 2026-05-05 10:22 | -24.59012 | -135.92005 | 34000 ft | 468 kts | 244° |
| 2026-05-05 10:22 | -24.61969 | -135.98424 | 34000 ft | 468 kts | 244° |
| 2026-05-05 10:23 | -24.64905 | -136.04807 | 34000 ft | 468 kts | 244° |
| 2026-05-05 10:23 | -24.67838 | -136.11189 | 34000 ft | 468 kts | 244° |
| 2026-05-05 10:24 | -24.70757 | -136.17552 | 34000 ft | 468 kts | 244° |
| 2026-05-05 10:24 | -24.73695 | -136.23964 | 34000 ft | 468 kts | 244° |
| 2026-05-05 10:25 | -24.76621 | -136.30361 | 34000 ft | 468 kts | 244° |
| 2026-05-05 10:25 | -24.79550 | -136.36772 | 34000 ft | 468 kts | 244° |
| 2026-05-05 10:26 | -24.82473 | -136.43178 | 34000 ft | 468 kts | 244° |
| 2026-05-05 10:26 | -24.85391 | -136.49585 | 34000 ft | 468 kts | 245° |
| 2026-05-05 10:27 | -24.88312 | -136.56006 | 34000 ft | 468 kts | 245° |
| 2026-05-05 10:27 | -24.91221 | -136.62409 | 34000 ft | 468 kts | 245° |
| 2026-05-05 10:28 | -24.94120 | -136.68798 | 34000 ft | 468 kts | 245° |
| 2026-05-05 10:28 | -24.97030 | -136.75221 | 34000 ft | 468 kts | 245° |
| 2026-05-05 10:29 | -24.99943 | -136.81661 | 34000 ft | 468 kts | 245° |
| 2026-05-05 10:29 | -25.02836 | -136.88067 | 34000 ft | 468 kts | 245° |
| 2026-05-05 10:30 | -25.05740 | -136.94503 | 34000 ft | 468 kts | 245° |
| 2026-05-05 10:30 | -25.08641 | -137.00943 | 34000 ft | 468 kts | 245° |
| 2026-05-05 10:31 | -25.11539 | -137.07388 | 34000 ft | 468 kts | 245° |
| 2026-05-05 10:31 | -25.14427 | -137.13816 | 34000 ft | 468 kts | 245° |
| 2026-05-05 10:32 | -25.17324 | -137.20276 | 34000 ft | 468 kts | 245° |
| 2026-05-05 10:32 | -25.20205 | -137.26710 | 34000 ft | 468 kts | 245° |
| 2026-05-05 10:33 | -25.23078 | -137.33135 | 34000 ft | 468 kts | 245° |
| 2026-05-05 10:33 | -25.25958 | -137.39582 | 34000 ft | 468 kts | 245° |
| 2026-05-05 10:34 | -25.28849 | -137.46066 | 34000 ft | 468 kts | 245° |
| 2026-05-05 10:34 | -25.31711 | -137.52493 | 34000 ft | 468 kts | 245° |
| 2026-05-05 10:35 | -25.34592 | -137.58974 | 34000 ft | 468 kts | 245° |
| 2026-05-05 10:35 | -25.37448 | -137.65406 | 34000 ft | 468 kts | 245° |
| 2026-05-05 10:36 | -25.40316 | -137.71876 | 34000 ft | 468 kts | 245° |
| 2026-05-05 10:36 | -25.43193 | -137.78374 | 34000 ft | 468 kts | 245° |
| 2026-05-05 10:37 | -25.46047 | -137.84830 | 34000 ft | 468 kts | 245° |
| 2026-05-05 10:37 | -25.48899 | -137.91292 | 34000 ft | 468 kts | 245° |
| 2026-05-05 10:38 | -25.51759 | -137.97781 | 34000 ft | 468 kts | 245° |
| 2026-05-05 10:38 | -25.54612 | -138.04264 | 34000 ft | 468 kts | 245° |
| 2026-05-05 10:39 | -25.57459 | -138.10744 | 34000 ft | 468 kts | 245° |
| 2026-05-05 10:39 | -25.60307 | -138.17233 | 34000 ft | 468 kts | 245° |
| 2026-05-05 10:40 | -25.63144 | -138.23709 | 34000 ft | 468 kts | 245° |
| 2026-05-05 10:40 | -25.65982 | -138.30196 | 34000 ft | 468 kts | 245° |
| 2026-05-05 10:41 | -25.68824 | -138.36702 | 34000 ft | 468 kts | 245° |
| 2026-05-05 10:41 | -25.71645 | -138.43168 | 34000 ft | 468 kts | 245° |
| 2026-05-05 10:42 | -25.75888 | -138.52913 | 34000 ft | 468 kts | 245° |
| 2026-05-05 10:43 | -25.78245 | -138.58337 | 34000 ft | 468 kts | 245° |
| 2026-05-05 10:43 | -25.81084 | -138.64878 | 34000 ft | 468 kts | 245° |
| 2026-05-05 10:44 | -25.83892 | -138.71357 | 34000 ft | 468 kts | 245° |
| 2026-05-05 10:44 | -25.86720 | -138.77893 | 34000 ft | 468 kts | 245° |
| 2026-05-05 10:45 | -25.89543 | -138.84427 | 34000 ft | 468 kts | 245° |
| 2026-05-05 10:45 | -25.92351 | -138.90936 | 34000 ft | 468 kts | 245° |
| 2026-05-05 10:46 | -25.95153 | -138.97441 | 34000 ft | 468 kts | 245° |
| 2026-05-05 10:46 | -25.97956 | -139.03957 | 34000 ft | 468 kts | 245° |
| 2026-05-05 10:47 | -26.00752 | -139.10469 | 34000 ft | 468 kts | 246° |
| 2026-05-05 10:47 | -26.03561 | -139.17019 | 34000 ft | 468 kts | 246° |
| 2026-05-05 10:48 | -26.06365 | -139.23568 | 34000 ft | 468 kts | 246° |
| 2026-05-05 10:48 | -26.09157 | -139.30100 | 34000 ft | 468 kts | 246° |
| 2026-05-05 10:49 | -26.11945 | -139.36630 | 34000 ft | 468 kts | 246° |
| 2026-05-05 10:49 | -26.14733 | -139.43174 | 34000 ft | 468 kts | 246° |
| 2026-05-05 10:50 | -26.17515 | -139.49712 | 34000 ft | 468 kts | 246° |
| 2026-05-05 10:50 | -26.20299 | -139.56263 | 34000 ft | 468 kts | 246° |
| 2026-05-05 10:51 | -26.23086 | -139.62833 | 34000 ft | 468 kts | 246° |
| 2026-05-05 10:51 | -26.25866 | -139.69397 | 34000 ft | 468 kts | 246° |
| 2026-05-05 10:52 | -26.28628 | -139.75928 | 34000 ft | 468 kts | 246° |
| 2026-05-05 10:52 | -26.31409 | -139.82515 | 34000 ft | 468 kts | 246° |
| 2026-05-05 10:53 | -26.34174 | -139.89073 | 34000 ft | 468 kts | 246° |
| 2026-05-05 10:53 | -26.36933 | -139.95627 | 34000 ft | 468 kts | 246° |
| 2026-05-05 10:54 | -26.39700 | -140.02212 | 34000 ft | 468 kts | 246° |
| 2026-05-05 10:54 | -26.42451 | -140.08766 | 34000 ft | 468 kts | 246° |
| 2026-05-05 10:55 | -26.45201 | -140.15330 | 34000 ft | 468 kts | 246° |
| 2026-05-05 10:55 | -26.47954 | -140.21913 | 34000 ft | 468 kts | 246° |
| 2026-05-05 10:56 | -26.50704 | -140.28496 | 34000 ft | 468 kts | 246° |
| 2026-05-05 10:56 | -26.53459 | -140.35103 | 34000 ft | 468 kts | 246° |
| 2026-05-05 10:57 | -26.56197 | -140.41679 | 34000 ft | 468 kts | 246° |
| 2026-05-05 10:57 | -26.58949 | -140.48301 | 34000 ft | 468 kts | 246° |
| 2026-05-05 10:58 | -26.61681 | -140.54884 | 34000 ft | 468 kts | 246° |
| 2026-05-05 10:58 | -26.64398 | -140.61441 | 34000 ft | 468 kts | 246° |
| 2026-05-05 10:59 | -26.67139 | -140.68068 | 34000 ft | 468 kts | 246° |
| 2026-05-05 10:59 | -26.69876 | -140.74694 | 34000 ft | 468 kts | 246° |
| 2026-05-05 11:00 | -26.72598 | -140.81295 | 34000 ft | 468 kts | 246° |
| 2026-05-05 11:00 | -26.75324 | -140.87917 | 34000 ft | 468 kts | 246° |
| 2026-05-05 11:01 | -26.78028 | -140.94496 | 34000 ft | 468 kts | 246° |
| 2026-05-05 11:01 | -26.80743 | -141.01111 | 34000 ft | 468 kts | 246° |
| 2026-05-05 11:02 | -26.83456 | -141.07733 | 34000 ft | 468 kts | 246° |
| 2026-05-05 11:02 | -26.86168 | -141.14361 | 34000 ft | 468 kts | 246° |
| 2026-05-05 11:03 | -26.88873 | -141.20986 | 34000 ft | 468 kts | 246° |
| 2026-05-05 11:03 | -26.91584 | -141.27634 | 34000 ft | 468 kts | 246° |
| 2026-05-05 11:04 | -26.94285 | -141.34270 | 34000 ft | 468 kts | 246° |
| 2026-05-05 11:04 | -26.96972 | -141.40880 | 34000 ft | 468 kts | 246° |
| 2026-05-05 11:05 | -26.99664 | -141.47515 | 34000 ft | 468 kts | 246° |
| 2026-05-05 11:05 | -27.02367 | -141.54189 | 34000 ft | 468 kts | 247° |
| 2026-05-05 11:06 | -27.05055 | -141.60835 | 34000 ft | 468 kts | 247° |
| 2026-05-05 11:06 | -27.07736 | -141.67475 | 34000 ft | 468 kts | 247° |
| 2026-05-05 11:07 | -27.10416 | -141.74123 | 34000 ft | 468 kts | 247° |
| 2026-05-05 11:07 | -27.13098 | -141.80789 | 34000 ft | 468 kts | 247° |
| 2026-05-05 11:08 | -27.15760 | -141.87413 | 34000 ft | 468 kts | 247° |
| 2026-05-05 11:08 | -27.18439 | -141.94093 | 34000 ft | 468 kts | 247° |
| 2026-05-05 11:09 | -27.21101 | -142.00739 | 34000 ft | 468 kts | 247° |
| 2026-05-05 11:09 | -27.23771 | -142.07419 | 34000 ft | 468 kts | 247° |
| 2026-05-05 11:10 | -27.26425 | -142.14068 | 34000 ft | 468 kts | 247° |
| 2026-05-05 11:10 | -27.29080 | -142.20732 | 34000 ft | 468 kts | 247° |
| 2026-05-05 11:11 | -27.31737 | -142.27411 | 34000 ft | 468 kts | 247° |
| 2026-05-05 11:11 | -27.34401 | -142.34119 | 34000 ft | 468 kts | 247° |
| 2026-05-05 11:12 | -27.37048 | -142.40796 | 34000 ft | 468 kts | 247° |
| 2026-05-05 11:12 | -27.39696 | -142.47488 | 34000 ft | 468 kts | 247° |
| 2026-05-05 11:13 | -27.42341 | -142.54180 | 34000 ft | 468 kts | 247° |
| 2026-05-05 11:13 | -27.44968 | -142.60841 | 34000 ft | 468 kts | 247° |
| 2026-05-05 11:14 | -27.47612 | -142.67555 | 34000 ft | 468 kts | 247° |
| 2026-05-05 11:14 | -27.50243 | -142.74248 | 34000 ft | 468 kts | 247° |
| 2026-05-05 11:15 | -27.52864 | -142.80928 | 34000 ft | 468 kts | 247° |
| 2026-05-05 11:15 | -27.55492 | -142.87634 | 34000 ft | 468 kts | 247° |
| 2026-05-05 11:16 | -27.58126 | -142.94370 | 34000 ft | 468 kts | 247° |
| 2026-05-05 11:16 | -27.60739 | -143.01060 | 34000 ft | 468 kts | 247° |
| 2026-05-05 11:17 | -27.63355 | -143.07773 | 34000 ft | 468 kts | 247° |
| 2026-05-05 11:17 | -27.65967 | -143.14485 | 34000 ft | 468 kts | 248° |
| 2026-05-05 11:18 | -27.68578 | -143.21206 | 34000 ft | 468 kts | 248° |
| 2026-05-05 11:18 | -27.71192 | -143.27946 | 34000 ft | 468 kts | 248° |
| 2026-05-05 11:19 | -27.73784 | -143.34643 | 34000 ft | 468 kts | 248° |
| 2026-05-05 11:19 | -27.76402 | -143.41416 | 34000 ft | 468 kts | 248° |
| 2026-05-05 11:20 | -27.78984 | -143.48111 | 34000 ft | 468 kts | 248° |
| 2026-05-05 11:20 | -27.81579 | -143.54848 | 34000 ft | 468 kts | 248° |
| 2026-05-05 11:21 | -27.84182 | -143.61620 | 34000 ft | 468 kts | 248° |
| 2026-05-05 11:21 | -27.86771 | -143.68367 | 34000 ft | 468 kts | 248° |
| 2026-05-05 11:22 | -27.89342 | -143.75077 | 34000 ft | 468 kts | 248° |
| 2026-05-05 11:22 | -27.91925 | -143.81831 | 34000 ft | 468 kts | 248° |
| 2026-05-05 11:23 | -27.94499 | -143.88573 | 34000 ft | 468 kts | 248° |
| 2026-05-05 11:23 | -27.96638 | -143.94187 | 34000 ft | 468 kts | 248° |
| 2026-05-05 11:24 | -27.99219 | -144.00969 | 34000 ft | 468 kts | 248° |
| 2026-05-05 11:24 | -28.01778 | -144.07705 | 34000 ft | 468 kts | 248° |
| 2026-05-05 11:25 | -28.04339 | -144.14458 | 34000 ft | 468 kts | 248° |
| 2026-05-05 11:25 | -28.06906 | -144.21241 | 34000 ft | 467 kts | 248° |
| 2026-05-05 11:26 | -28.09470 | -144.28026 | 34000 ft | 467 kts | 248° |
| 2026-05-05 11:26 | -28.12016 | -144.34777 | 34000 ft | 467 kts | 248° |
| 2026-05-05 11:27 | -28.14571 | -144.41562 | 34000 ft | 467 kts | 248° |
| 2026-05-05 11:27 | -28.17114 | -144.48328 | 34000 ft | 467 kts | 248° |
| 2026-05-05 11:28 | -28.19655 | -144.55101 | 34000 ft | 467 kts | 248° |
| 2026-05-05 11:28 | -28.22203 | -144.61905 | 34000 ft | 467 kts | 248° |
| 2026-05-05 11:29 | -28.24741 | -144.68695 | 34000 ft | 467 kts | 248° |
| 2026-05-05 11:29 | -28.27276 | -144.75489 | 34000 ft | 467 kts | 248° |
| 2026-05-05 11:30 | -28.29809 | -144.82289 | 34000 ft | 467 kts | 248° |
| 2026-05-05 11:30 | -28.32330 | -144.89067 | 34000 ft | 467 kts | 248° |
| 2026-05-05 11:31 | -28.34850 | -144.95859 | 34000 ft | 467 kts | 248° |
| 2026-05-05 11:31 | -28.37370 | -145.02660 | 34000 ft | 467 kts | 248° |
| 2026-05-05 11:32 | -28.39886 | -145.09464 | 34000 ft | 467 kts | 248° |
| 2026-05-05 11:32 | -28.42408 | -145.16297 | 34000 ft | 467 kts | 248° |
| 2026-05-05 11:33 | -28.44923 | -145.23122 | 34000 ft | 467 kts | 248° |
| 2026-05-05 11:33 | -28.47426 | -145.29927 | 34000 ft | 467 kts | 248° |
| 2026-05-05 11:34 | -28.49921 | -145.36724 | 34000 ft | 467 kts | 248° |
| 2026-05-05 11:34 | -28.52417 | -145.43536 | 34000 ft | 467 kts | 248° |
| 2026-05-05 11:35 | -28.54928 | -145.50402 | 34000 ft | 467 kts | 249° |
| 2026-05-05 11:35 | -28.57414 | -145.57210 | 34000 ft | 467 kts | 249° |
| 2026-05-05 11:36 | -28.59900 | -145.64033 | 34000 ft | 467 kts | 249° |
| 2026-05-05 11:36 | -28.62377 | -145.70844 | 34000 ft | 467 kts | 249° |
| 2026-05-05 11:37 | -28.64871 | -145.77711 | 34000 ft | 467 kts | 249° |
| 2026-05-05 11:37 | -28.67349 | -145.84550 | 34000 ft | 467 kts | 249° |
| 2026-05-05 11:38 | -28.69822 | -145.91388 | 34000 ft | 467 kts | 249° |
| 2026-05-05 11:38 | -28.72294 | -145.98233 | 34000 ft | 467 kts | 249° |
| 2026-05-05 11:39 | -28.74755 | -146.05064 | 34000 ft | 467 kts | 249° |
| 2026-05-05 11:39 | -28.77236 | -146.11959 | 34000 ft | 467 kts | 249° |
| 2026-05-05 11:40 | -28.79699 | -146.18821 | 34000 ft | 467 kts | 249° |
| 2026-05-05 11:40 | -28.82155 | -146.25674 | 34000 ft | 467 kts | 249° |
| 2026-05-05 11:41 | -28.84606 | -146.32528 | 34000 ft | 467 kts | 249° |
| 2026-05-05 11:41 | -28.87055 | -146.39387 | 34000 ft | 467 kts | 249° |
| 2026-05-05 11:42 | -28.89497 | -146.46240 | 34000 ft | 467 kts | 249° |
| 2026-05-05 11:42 | -28.91940 | -146.53109 | 34000 ft | 467 kts | 249° |
| 2026-05-05 11:43 | -28.94384 | -146.59994 | 34000 ft | 467 kts | 249° |
| 2026-05-05 11:43 | -28.96826 | -146.66886 | 34000 ft | 467 kts | 249° |
| 2026-05-05 11:44 | -28.99259 | -146.73769 | 34000 ft | 467 kts | 249° |
| 2026-05-05 11:44 | -29.01689 | -146.80653 | 34000 ft | 467 kts | 249° |
| 2026-05-05 11:45 | -29.04112 | -146.87532 | 34000 ft | 467 kts | 249° |
| 2026-05-05 11:45 | -29.06531 | -146.94410 | 34000 ft | 467 kts | 249° |
| 2026-05-05 11:46 | -29.08949 | -147.01300 | 34000 ft | 467 kts | 249° |
| 2026-05-05 11:46 | -29.11367 | -147.08204 | 34000 ft | 467 kts | 249° |
| 2026-05-05 11:47 | -29.13789 | -147.15134 | 34000 ft | 467 kts | 249° |
| 2026-05-05 11:47 | -29.16188 | -147.22010 | 34000 ft | 467 kts | 249° |
| 2026-05-05 11:48 | -29.19793 | -147.32367 | 34000 ft | 467 kts | 249° |
| 2026-05-05 11:48 | -29.22199 | -147.39298 | 34000 ft | 467 kts | 249° |
| 2026-05-05 11:49 | -29.24588 | -147.46191 | 34000 ft | 467 kts | 249° |
| 2026-05-05 11:49 | -29.26981 | -147.53110 | 34000 ft | 467 kts | 249° |
| 2026-05-05 11:50 | -29.29375 | -147.60047 | 34000 ft | 467 kts | 249° |
| 2026-05-05 11:50 | -29.31753 | -147.66950 | 34000 ft | 467 kts | 249° |
| 2026-05-05 11:51 | -29.34142 | -147.73899 | 34000 ft | 467 kts | 249° |
| 2026-05-05 11:51 | -29.36516 | -147.80815 | 34000 ft | 467 kts | 250° |
| 2026-05-05 11:52 | -29.38892 | -147.87754 | 34000 ft | 467 kts | 250° |
| 2026-05-05 11:52 | -29.41276 | -147.94730 | 34000 ft | 467 kts | 250° |
| 2026-05-05 11:53 | -29.43631 | -148.01635 | 34000 ft | 467 kts | 250° |
| 2026-05-05 11:53 | -29.45994 | -148.08574 | 34000 ft | 467 kts | 250° |
| 2026-05-05 11:54 | -29.48366 | -148.15557 | 34000 ft | 467 kts | 250° |
| 2026-05-05 11:54 | -29.50718 | -148.22492 | 34000 ft | 467 kts | 250° |
| 2026-05-05 11:55 | -29.53073 | -148.29454 | 34000 ft | 467 kts | 250° |
| 2026-05-05 11:55 | -29.55414 | -148.36385 | 34000 ft | 467 kts | 250° |
| 2026-05-05 11:56 | -29.57767 | -148.43367 | 34000 ft | 467 kts | 250° |
| 2026-05-05 11:56 | -29.60097 | -148.50292 | 34000 ft | 467 kts | 250° |
| 2026-05-05 11:57 | -29.62441 | -148.57274 | 34000 ft | 467 kts | 250° |
| 2026-05-05 11:57 | -29.64773 | -148.64236 | 34000 ft | 467 kts | 250° |
| 2026-05-05 11:58 | -29.67110 | -148.71226 | 34000 ft | 467 kts | 250° |
| 2026-05-05 11:58 | -29.69429 | -148.78177 | 34000 ft | 467 kts | 250° |
| 2026-05-05 11:59 | -29.71764 | -148.85191 | 34000 ft | 467 kts | 250° |
| 2026-05-05 11:59 | -29.74079 | -148.92155 | 34000 ft | 467 kts | 250° |
| 2026-05-05 12:00 | -29.76399 | -148.99151 | 34000 ft | 467 kts | 250° |
| 2026-05-05 12:00 | -29.78712 | -149.06143 | 34000 ft | 467 kts | 250° |
| 2026-05-05 12:01 | -29.81010 | -149.13101 | 34000 ft | 467 kts | 250° |
| 2026-05-05 12:01 | -29.83327 | -149.20129 | 34000 ft | 467 kts | 250° |
| 2026-05-05 12:02 | -29.85626 | -149.27119 | 34000 ft | 467 kts | 250° |
| 2026-05-05 12:02 | -29.87913 | -149.34086 | 34000 ft | 467 kts | 250° |
| 2026-05-05 12:03 | -29.89824 | -149.39922 | 34000 ft | 467 kts | 250° |
| 2026-05-05 12:03 | -29.92495 | -149.48093 | 34000 ft | 467 kts | 250° |
| 2026-05-05 12:04 | -29.94412 | -149.53968 | 34000 ft | 467 kts | 250° |
| 2026-05-05 12:04 | -29.96698 | -149.60988 | 34000 ft | 467 kts | 250° |
| 2026-05-05 12:05 | -29.98975 | -149.67996 | 34000 ft | 467 kts | 250° |
| 2026-05-05 12:05 | -30.01249 | -149.75008 | 34000 ft | 467 kts | 250° |
| 2026-05-05 12:06 | -30.03517 | -149.82016 | 34000 ft | 467 kts | 250° |
| 2026-05-05 12:06 | -30.05780 | -149.89025 | 34000 ft | 467 kts | 250° |
| 2026-05-05 12:07 | -30.08055 | -149.96085 | 34000 ft | 467 kts | 250° |
| 2026-05-05 12:07 | -30.10304 | -150.03081 | 34000 ft | 467 kts | 251° |
| 2026-05-05 12:08 | -30.12569 | -150.10138 | 34000 ft | 467 kts | 251° |
| 2026-05-05 12:08 | -30.14822 | -150.17175 | 34000 ft | 467 kts | 251° |
| 2026-05-05 12:09 | -30.17059 | -150.24175 | 34000 ft | 467 kts | 251° |
| 2026-05-05 12:09 | -30.19308 | -150.31231 | 34000 ft | 467 kts | 251° |
| 2026-05-05 12:10 | -30.21550 | -150.38278 | 34000 ft | 467 kts | 251° |
| 2026-05-05 12:10 | -30.23798 | -150.45359 | 34000 ft | 467 kts | 251° |
| 2026-05-05 12:11 | -30.26018 | -150.52367 | 34000 ft | 467 kts | 251° |
| 2026-05-05 12:11 | -30.28258 | -150.59453 | 34000 ft | 467 kts | 251° |
| 2026-05-05 12:12 | -30.30475 | -150.66482 | 34000 ft | 467 kts | 251° |
| 2026-05-05 12:12 | -30.32706 | -150.73568 | 34000 ft | 467 kts | 251° |
| 2026-05-05 12:13 | -30.34918 | -150.80612 | 34000 ft | 467 kts | 251° |
| 2026-05-05 12:13 | -30.37147 | -150.87726 | 34000 ft | 467 kts | 251° |
| 2026-05-05 12:14 | -30.39354 | -150.94783 | 34000 ft | 467 kts | 251° |
| 2026-05-05 12:14 | -30.41566 | -151.01873 | 34000 ft | 467 kts | 251° |
| 2026-05-05 12:15 | -30.43768 | -151.08944 | 34000 ft | 467 kts | 251° |
| 2026-05-05 12:15 | -30.45965 | -151.16016 | 34000 ft | 467 kts | 251° |
| 2026-05-05 12:16 | -30.48153 | -151.23075 | 34000 ft | 467 kts | 251° |
| 2026-05-05 12:16 | -30.50350 | -151.30178 | 34000 ft | 467 kts | 251° |
| 2026-05-05 12:17 | -30.52544 | -151.37287 | 34000 ft | 467 kts | 251° |
| 2026-05-05 12:17 | -30.54725 | -151.44368 | 34000 ft | 467 kts | 251° |
| 2026-05-05 12:18 | -30.56904 | -151.51460 | 34000 ft | 467 kts | 251° |
| 2026-05-05 12:18 | -30.59078 | -151.58550 | 34000 ft | 467 kts | 251° |
| 2026-05-05 12:19 | -30.61255 | -151.65667 | 34000 ft | 467 kts | 251° |
| 2026-05-05 12:19 | -30.63411 | -151.72732 | 34000 ft | 467 kts | 251° |
| 2026-05-05 12:20 | -30.65574 | -151.79833 | 34000 ft | 467 kts | 251° |
| 2026-05-05 12:20 | -30.67742 | -151.86966 | 34000 ft | 467 kts | 251° |
| 2026-05-05 12:21 | -30.69899 | -151.94082 | 34000 ft | 467 kts | 251° |
| 2026-05-05 12:21 | -30.72054 | -152.01207 | 34000 ft | 467 kts | 251° |
| 2026-05-05 12:22 | -30.74203 | -152.08326 | 34000 ft | 467 kts | 251° |
| 2026-05-05 12:22 | -30.76350 | -152.15457 | 34000 ft | 467 kts | 251° |
| 2026-05-05 12:23 | -30.78483 | -152.22555 | 34000 ft | 467 kts | 252° |
| 2026-05-05 12:23 | -30.80622 | -152.29690 | 34000 ft | 467 kts | 252° |
| 2026-05-05 12:24 | -30.82758 | -152.36831 | 34000 ft | 467 kts | 252° |
| 2026-05-05 12:24 | -30.84880 | -152.43942 | 34000 ft | 467 kts | 252° |
| 2026-05-05 12:25 | -30.87012 | -152.51101 | 34000 ft | 467 kts | 252° |
| 2026-05-05 12:25 | -30.89128 | -152.58225 | 34000 ft | 467 kts | 252° |
| 2026-05-05 12:26 | -30.91249 | -152.65379 | 34000 ft | 467 kts | 252° |
| 2026-05-05 12:26 | -30.93366 | -152.72540 | 34000 ft | 467 kts | 252° |
| 2026-05-05 12:27 | -30.95475 | -152.79687 | 34000 ft | 467 kts | 252° |
| 2026-05-05 12:27 | -30.97579 | -152.86835 | 34000 ft | 467 kts | 252° |
| 2026-05-05 12:28 | -30.99681 | -152.93996 | 34000 ft | 467 kts | 252° |
| 2026-05-05 12:28 | -31.01772 | -153.01133 | 34000 ft | 467 kts | 252° |
| 2026-05-05 12:29 | -31.03870 | -153.08311 | 34000 ft | 467 kts | 252° |
| 2026-05-05 12:29 | -31.05958 | -153.15471 | 34000 ft | 467 kts | 252° |
| 2026-05-05 12:30 | -31.08050 | -153.22658 | 34000 ft | 467 kts | 252° |
| 2026-05-05 12:30 | -31.10126 | -153.29812 | 34000 ft | 467 kts | 252° |
| 2026-05-05 12:31 | -31.12209 | -153.37005 | 34000 ft | 467 kts | 252° |
| 2026-05-05 12:31 | -31.14280 | -153.44174 | 34000 ft | 467 kts | 252° |
| 2026-05-05 12:32 | -31.16348 | -153.51349 | 34000 ft | 467 kts | 252° |
| 2026-05-05 12:32 | -31.18425 | -153.58573 | 34000 ft | 467 kts | 252° |
| 2026-05-05 12:33 | -31.20472 | -153.65709 | 34000 ft | 467 kts | 252° |
| 2026-05-05 12:33 | -31.22535 | -153.72919 | 34000 ft | 467 kts | 252° |
| 2026-05-05 12:34 | -31.24588 | -153.80109 | 34000 ft | 467 kts | 252° |
| 2026-05-05 12:34 | -31.26640 | -153.87314 | 34000 ft | 467 kts | 252° |
| 2026-05-05 12:35 | -31.28680 | -153.94493 | 34000 ft | 467 kts | 252° |
| 2026-05-05 12:35 | -31.30733 | -154.01737 | 34000 ft | 467 kts | 252° |
| 2026-05-05 12:36 | -31.32766 | -154.08924 | 34000 ft | 467 kts | 252° |
| 2026-05-05 12:36 | -31.34797 | -154.16126 | 34000 ft | 467 kts | 252° |
| 2026-05-05 12:37 | -31.36824 | -154.23329 | 34000 ft | 467 kts | 252° |
| 2026-05-05 12:37 | -31.38856 | -154.30569 | 34000 ft | 467 kts | 252° |
| 2026-05-05 12:38 | -31.40874 | -154.37772 | 34000 ft | 467 kts | 253° |
| 2026-05-05 12:38 | -31.42895 | -154.45009 | 34000 ft | 467 kts | 253° |
| 2026-05-05 12:39 | -31.44908 | -154.52231 | 34000 ft | 467 kts | 253° |
| 2026-05-05 12:39 | -31.46916 | -154.59455 | 34000 ft | 467 kts | 253° |
| 2026-05-05 12:40 | -31.48928 | -154.66709 | 34000 ft | 467 kts | 253° |
| 2026-05-05 12:40 | -31.50921 | -154.73914 | 34000 ft | 467 kts | 253° |
| 2026-05-05 12:41 | -31.52927 | -154.81182 | 34000 ft | 467 kts | 253° |
| 2026-05-05 12:41 | -31.54910 | -154.88387 | 34000 ft | 467 kts | 253° |
| 2026-05-05 12:42 | -31.56898 | -154.95626 | 34000 ft | 467 kts | 253° |
| 2026-05-05 12:42 | -31.58889 | -155.02895 | 34000 ft | 467 kts | 253° |
| 2026-05-05 12:43 | -31.60867 | -155.10134 | 34000 ft | 467 kts | 253° |
| 2026-05-05 12:43 | -31.62845 | -155.17393 | 34000 ft | 467 kts | 253° |
| 2026-05-05 12:44 | -31.64820 | -155.24655 | 34000 ft | 467 kts | 253° |
| 2026-05-05 12:44 | -31.66785 | -155.31902 | 34000 ft | 467 kts | 253° |
| 2026-05-05 12:45 | -31.68416 | -155.37929 | 34000 ft | 467 kts | 253° |
| 2026-05-05 12:45 | -31.70704 | -155.46407 | 34000 ft | 467 kts | 253° |
| 2026-05-05 12:46 | -31.72339 | -155.52481 | 34000 ft | 467 kts | 253° |
| 2026-05-05 12:46 | -31.74292 | -155.59751 | 34000 ft | 467 kts | 253° |
| 2026-05-05 12:47 | -31.76238 | -155.67015 | 34000 ft | 467 kts | 253° |
| 2026-05-05 12:47 | -31.78180 | -155.74284 | 34000 ft | 467 kts | 253° |
| 2026-05-05 12:48 | -31.80133 | -155.81608 | 34000 ft | 467 kts | 253° |
| 2026-05-05 12:48 | -31.82069 | -155.88891 | 34000 ft | 467 kts | 253° |
| 2026-05-05 12:49 | -31.83985 | -155.96118 | 34000 ft | 467 kts | 253° |
| 2026-05-05 12:49 | -31.85916 | -156.03419 | 34000 ft | 467 kts | 253° |
| 2026-05-05 12:50 | -31.87842 | -156.10718 | 34000 ft | 467 kts | 253° |
| 2026-05-05 12:50 | -31.89760 | -156.18009 | 34000 ft | 467 kts | 253° |
| 2026-05-05 12:51 | -31.91680 | -156.25323 | 34000 ft | 467 kts | 253° |
| 2026-05-05 12:51 | -31.93586 | -156.32604 | 34000 ft | 467 kts | 253° |
| 2026-05-05 12:52 | -31.95493 | -156.39908 | 34000 ft | 467 kts | 253° |
| 2026-05-05 12:52 | -31.97397 | -156.47220 | 34000 ft | 467 kts | 254° |
| 2026-05-05 12:53 | -31.99292 | -156.54513 | 34000 ft | 467 kts | 254° |
| 2026-05-05 12:53 | -32.01194 | -156.61856 | 34000 ft | 467 kts | 254° |
| 2026-05-05 12:54 | -32.04026 | -156.72824 | 34000 ft | 467 kts | 254° |
| 2026-05-05 12:55 | -32.05907 | -156.80135 | 34000 ft | 467 kts | 254° |
| 2026-05-05 12:55 | -32.07780 | -156.87430 | 34000 ft | 466 kts | 254° |
| 2026-05-05 12:56 | -32.09664 | -156.94790 | 34000 ft | 466 kts | 254° |
| 2026-05-05 12:56 | -32.11523 | -157.02073 | 34000 ft | 466 kts | 254° |
| 2026-05-05 12:57 | -32.13393 | -157.09418 | 34000 ft | 466 kts | 254° |
| 2026-05-05 12:57 | -32.15251 | -157.16732 | 34000 ft | 466 kts | 254° |
| 2026-05-05 12:58 | -32.17108 | -157.24065 | 34000 ft | 466 kts | 254° |
| 2026-05-05 12:58 | -32.18965 | -157.31418 | 34000 ft | 466 kts | 254° |
| 2026-05-05 12:59 | -32.20821 | -157.38784 | 34000 ft | 466 kts | 254° |
| 2026-05-05 12:59 | -32.22660 | -157.46106 | 34000 ft | 466 kts | 254° |
| 2026-05-05 13:00 | -32.25420 | -157.57127 | 34000 ft | 466 kts | 254° |
| 2026-05-05 13:01 | -32.29088 | -157.71845 | 34000 ft | 466 kts | 254° |
| 2026-05-05 13:01 | -32.30908 | -157.79180 | 34000 ft | 466 kts | 254° |
| 2026-05-05 13:02 | -32.32740 | -157.86581 | 34000 ft | 466 kts | 255° |
| 2026-05-05 13:02 | -32.34553 | -157.93930 | 34000 ft | 466 kts | 255° |
| 2026-05-05 13:03 | -32.36369 | -158.01305 | 34000 ft | 466 kts | 255° |
| 2026-05-05 13:03 | -32.38166 | -158.08630 | 34000 ft | 466 kts | 255° |
| 2026-05-05 13:04 | -32.39971 | -158.16001 | 34000 ft | 466 kts | 255° |
| 2026-05-05 13:04 | -32.41777 | -158.23400 | 34000 ft | 466 kts | 255° |
| 2026-05-05 13:05 | -32.43574 | -158.30783 | 34000 ft | 466 kts | 255° |
| 2026-05-05 13:05 | -32.45356 | -158.38123 | 34000 ft | 466 kts | 255° |
| 2026-05-05 13:06 | -32.47145 | -158.45517 | 34000 ft | 466 kts | 255° |
| 2026-05-05 13:06 | -32.48934 | -158.52929 | 34000 ft | 466 kts | 255° |
| 2026-05-05 13:07 | -32.50716 | -158.60330 | 34000 ft | 466 kts | 255° |
| 2026-05-05 13:07 | -32.52486 | -158.67704 | 34000 ft | 466 kts | 255° |
| 2026-05-05 13:08 | -32.54253 | -158.75087 | 34000 ft | 466 kts | 255° |
| 2026-05-05 13:08 | -32.56016 | -158.82476 | 34000 ft | 466 kts | 255° |
| 2026-05-05 13:09 | -32.57785 | -158.89908 | 34000 ft | 466 kts | 255° |
| 2026-05-05 13:09 | -32.59539 | -158.97299 | 34000 ft | 466 kts | 255° |
| 2026-05-05 13:10 | -32.61291 | -159.04704 | 34000 ft | 466 kts | 255° |
| 2026-05-05 13:10 | -32.63032 | -159.12085 | 34000 ft | 466 kts | 255° |
| 2026-05-05 13:11 | -32.64781 | -159.19518 | 34000 ft | 466 kts | 255° |
| 2026-05-05 13:11 | -32.66517 | -159.26918 | 34000 ft | 466 kts | 255° |
| 2026-05-05 13:12 | -32.68256 | -159.34355 | 34000 ft | 466 kts | 255° |
| 2026-05-05 13:12 | -32.69980 | -159.41744 | 34000 ft | 466 kts | 255° |
| 2026-05-05 13:13 | -32.71709 | -159.49179 | 34000 ft | 466 kts | 255° |
| 2026-05-05 13:13 | -32.73432 | -159.56610 | 34000 ft | 466 kts | 255° |
| 2026-05-05 13:14 | -32.75145 | -159.64022 | 34000 ft | 466 kts | 255° |
| 2026-05-05 13:14 | -32.76861 | -159.71464 | 34000 ft | 466 kts | 255° |
| 2026-05-05 13:15 | -32.78574 | -159.78921 | 34000 ft | 466 kts | 255° |
| 2026-05-05 13:15 | -32.80271 | -159.86323 | 34000 ft | 466 kts | 255° |
| 2026-05-05 13:16 | -32.81973 | -159.93774 | 34000 ft | 466 kts | 256° |
| 2026-05-05 13:16 | -32.83670 | -160.01222 | 34000 ft | 466 kts | 256° |
| 2026-05-05 13:17 | -32.85359 | -160.08663 | 34000 ft | 466 kts | 256° |
| 2026-05-05 13:17 | -32.87049 | -160.16124 | 34000 ft | 466 kts | 256° |
| 2026-05-05 13:18 | -32.88734 | -160.23587 | 34000 ft | 466 kts | 256° |
| 2026-05-05 13:18 | -32.90410 | -160.31036 | 34000 ft | 466 kts | 256° |
| 2026-05-05 13:19 | -32.92085 | -160.38501 | 34000 ft | 466 kts | 256° |
| 2026-05-05 13:19 | -32.93747 | -160.45930 | 34000 ft | 466 kts | 256° |
| 2026-05-05 13:20 | -32.95411 | -160.53391 | 34000 ft | 466 kts | 256° |
| 2026-05-05 13:20 | -32.97071 | -160.60856 | 34000 ft | 466 kts | 256° |
| 2026-05-05 13:21 | -32.98734 | -160.68353 | 34000 ft | 466 kts | 256° |
| 2026-05-05 13:21 | -33.00382 | -160.75810 | 34000 ft | 466 kts | 256° |
| 2026-05-05 13:22 | -33.02022 | -160.83257 | 34000 ft | 466 kts | 256° |
| 2026-05-05 13:22 | -33.03668 | -160.90751 | 34000 ft | 466 kts | 256° |
| 2026-05-05 13:23 | -33.05307 | -160.98235 | 34000 ft | 466 kts | 256° |
| 2026-05-05 13:23 | -33.06936 | -161.05698 | 34000 ft | 466 kts | 256° |
| 2026-05-05 13:24 | -33.08562 | -161.13170 | 34000 ft | 466 kts | 256° |
| 2026-05-05 13:24 | -33.10186 | -161.20654 | 34000 ft | 466 kts | 256° |
| 2026-05-05 13:25 | -33.11543 | -161.26927 | 34000 ft | 466 kts | 256° |